<?xml version="1.0" encoding="UTF-8" standalone="no" ?>
<gpx xmlns="http://www.topografix.com/GPX/1/1" xmlns:xsi="http://www.w3.org/2001/XMLSchema-instance" xsi:schemaLocation="http://www.topografix.com/GPX/1/1 http://www.topografix.com/GPX/1/1/gpx.xsd" version="1.1" creator="VisuGPX - https://www.visugpx.com">
  <metadata>
    <name>RANDO NORD OUEST PONT L EVEQUE</name>
  </metadata>
  <trk>
    <name><![CDATA[2021-01-30 13:03:48 Jour]]></name>
    <trkseg>
      <trkpt lat="49.28012" lon="0.17838">
        <ele>174.62</ele>
        <time>2021-01-30T12:03:48Z</time>
      </trkpt>
      <trkpt lat="49.28015" lon="0.17834">
        <ele>174.62</ele>
        <time>2021-01-30T12:03:56Z</time>
      </trkpt>
      <trkpt lat="49.28014" lon="0.17842">
        <ele>175.58</ele>
        <time>2021-01-30T12:04:12Z</time>
      </trkpt>
      <trkpt lat="49.28007" lon="0.17854">
        <ele>175.58</ele>
        <time>2021-01-30T12:04:27Z</time>
      </trkpt>
      <trkpt lat="49.28008" lon="0.1786">
        <ele>175.58</ele>
        <time>2021-01-30T12:04:33Z</time>
      </trkpt>
      <trkpt lat="49.28008" lon="0.1787">
        <ele>174.62</ele>
        <time>2021-01-30T12:04:39Z</time>
      </trkpt>
      <trkpt lat="49.28012" lon="0.17898">
        <ele>174.14</ele>
        <time>2021-01-30T12:05:00Z</time>
      </trkpt>
      <trkpt lat="49.2803" lon="0.17897">
        <ele>172.21</ele>
        <time>2021-01-30T12:05:21Z</time>
      </trkpt>
      <trkpt lat="49.28038" lon="0.17898">
        <ele>172.21</ele>
        <time>2021-01-30T12:05:26Z</time>
      </trkpt>
      <trkpt lat="49.2807" lon="0.17915">
        <ele>171.25</ele>
        <time>2021-01-30T12:05:51Z</time>
      </trkpt>
      <trkpt lat="49.28091" lon="0.17928">
        <ele>167.89</ele>
        <time>2021-01-30T12:06:09Z</time>
      </trkpt>
      <trkpt lat="49.28121" lon="0.17951">
        <ele>164.52</ele>
        <time>2021-01-30T12:06:33Z</time>
      </trkpt>
      <trkpt lat="49.28145" lon="0.1797">
        <ele>161.64</ele>
        <time>2021-01-30T12:06:58Z</time>
      </trkpt>
      <trkpt lat="49.2815" lon="0.17968">
        <ele>154.43</ele>
        <time>2021-01-30T12:07:04Z</time>
      </trkpt>
      <trkpt lat="49.28151" lon="0.17967">
        <ele>148.18</ele>
        <time>2021-01-30T12:07:05Z</time>
      </trkpt>
      <trkpt lat="49.28151" lon="0.17966">
        <ele>142.41</ele>
        <time>2021-01-30T12:07:06Z</time>
      </trkpt>
      <trkpt lat="49.28152" lon="0.17965">
        <ele>137.13</ele>
        <time>2021-01-30T12:07:07Z</time>
      </trkpt>
      <trkpt lat="49.28153" lon="0.17964">
        <ele>131.36</ele>
        <time>2021-01-30T12:07:08Z</time>
      </trkpt>
      <trkpt lat="49.28154" lon="0.17963">
        <ele>126.55</ele>
        <time>2021-01-30T12:07:09Z</time>
      </trkpt>
      <trkpt lat="49.28155" lon="0.17961">
        <ele>120.78</ele>
        <time>2021-01-30T12:07:10Z</time>
      </trkpt>
      <trkpt lat="49.28156" lon="0.1796">
        <ele>115.98</ele>
        <time>2021-01-30T12:07:11Z</time>
      </trkpt>
      <trkpt lat="49.28157" lon="0.17959">
        <ele>111.17</ele>
        <time>2021-01-30T12:07:12Z</time>
      </trkpt>
      <trkpt lat="49.28158" lon="0.17957">
        <ele>106.84</ele>
        <time>2021-01-30T12:07:13Z</time>
      </trkpt>
      <trkpt lat="49.28159" lon="0.17956">
        <ele>102.04</ele>
        <time>2021-01-30T12:07:14Z</time>
      </trkpt>
      <trkpt lat="49.2816" lon="0.17955">
        <ele>97.71</ele>
        <time>2021-01-30T12:07:15Z</time>
      </trkpt>
      <trkpt lat="49.28161" lon="0.17954">
        <ele>93.87</ele>
        <time>2021-01-30T12:07:16Z</time>
      </trkpt>
      <trkpt lat="49.28162" lon="0.17954">
        <ele>90.02</ele>
        <time>2021-01-30T12:07:17Z</time>
      </trkpt>
      <trkpt lat="49.28163" lon="0.17953">
        <ele>86.18</ele>
        <time>2021-01-30T12:07:18Z</time>
      </trkpt>
      <trkpt lat="49.28163" lon="0.17952">
        <ele>82.33</ele>
        <time>2021-01-30T12:07:19Z</time>
      </trkpt>
      <trkpt lat="49.28162" lon="0.17965">
        <ele>78.48</ele>
        <time>2021-01-30T12:07:20Z</time>
      </trkpt>
      <trkpt lat="49.28163" lon="0.17967">
        <ele>75.12</ele>
        <time>2021-01-30T12:07:21Z</time>
      </trkpt>
      <trkpt lat="49.28163" lon="0.17967">
        <ele>71.76</ele>
        <time>2021-01-30T12:07:22Z</time>
      </trkpt>
      <trkpt lat="49.28164" lon="0.17967">
        <ele>68.87</ele>
        <time>2021-01-30T12:07:23Z</time>
      </trkpt>
      <trkpt lat="49.28166" lon="0.17967">
        <ele>63.1</ele>
        <time>2021-01-30T12:07:25Z</time>
      </trkpt>
      <trkpt lat="49.28167" lon="0.17966">
        <ele>56.86</ele>
        <time>2021-01-30T12:07:27Z</time>
      </trkpt>
      <trkpt lat="49.28169" lon="0.17964">
        <ele>52.05</ele>
        <time>2021-01-30T12:07:29Z</time>
      </trkpt>
      <trkpt lat="49.2817" lon="0.17963">
        <ele>47.24</ele>
        <time>2021-01-30T12:07:30Z</time>
      </trkpt>
      <trkpt lat="49.28172" lon="0.1796">
        <ele>42.44</ele>
        <time>2021-01-30T12:07:33Z</time>
      </trkpt>
      <trkpt lat="49.28173" lon="0.17958">
        <ele>38.59</ele>
        <time>2021-01-30T12:07:35Z</time>
      </trkpt>
      <trkpt lat="49.28173" lon="0.17955">
        <ele>34.26</ele>
        <time>2021-01-30T12:07:37Z</time>
      </trkpt>
      <trkpt lat="49.28173" lon="0.17951">
        <ele>30.42</ele>
        <time>2021-01-30T12:07:39Z</time>
      </trkpt>
      <trkpt lat="49.28174" lon="0.1795">
        <ele>27.05</ele>
        <time>2021-01-30T12:07:41Z</time>
      </trkpt>
      <trkpt lat="49.28177" lon="0.1795">
        <ele>23.21</ele>
        <time>2021-01-30T12:07:43Z</time>
      </trkpt>
      <trkpt lat="49.28178" lon="0.17949">
        <ele>18.88</ele>
        <time>2021-01-30T12:07:46Z</time>
      </trkpt>
      <trkpt lat="49.28181" lon="0.1795">
        <ele>14.08</ele>
        <time>2021-01-30T12:07:49Z</time>
      </trkpt>
      <trkpt lat="49.28184" lon="0.17946">
        <ele>10.71</ele>
        <time>2021-01-30T12:07:52Z</time>
      </trkpt>
      <trkpt lat="49.28186" lon="0.17943">
        <ele>6.87</ele>
        <time>2021-01-30T12:07:55Z</time>
      </trkpt>
      <trkpt lat="49.28187" lon="0.17939">
        <ele>4.94</ele>
        <time>2021-01-30T12:07:57Z</time>
      </trkpt>
      <trkpt lat="49.28189" lon="0.17932">
        <ele>3.02</ele>
        <time>2021-01-30T12:08:00Z</time>
      </trkpt>
      <trkpt lat="49.28191" lon="0.17925">
        <ele>-0.34</ele>
        <time>2021-01-30T12:08:04Z</time>
      </trkpt>
      <trkpt lat="49.28194" lon="0.17919">
        <ele>-4.19</ele>
        <time>2021-01-30T12:08:08Z</time>
      </trkpt>
      <trkpt lat="49.28195" lon="0.17916">
        <ele>-6.11</ele>
        <time>2021-01-30T12:08:11Z</time>
      </trkpt>
      <trkpt lat="49.28197" lon="0.1791">
        <ele>-9.48</ele>
        <time>2021-01-30T12:08:15Z</time>
      </trkpt>
      <trkpt lat="49.28198" lon="0.17904">
        <ele>-12.36</ele>
        <time>2021-01-30T12:08:19Z</time>
      </trkpt>
      <trkpt lat="49.28201" lon="0.179">
        <ele>-15.24</ele>
        <time>2021-01-30T12:08:23Z</time>
      </trkpt>
      <trkpt lat="49.28206" lon="0.17889">
        <ele>-18.61</ele>
        <time>2021-01-30T12:08:29Z</time>
      </trkpt>
      <trkpt lat="49.28208" lon="0.17881">
        <ele>-21.97</ele>
        <time>2021-01-30T12:08:34Z</time>
      </trkpt>
      <trkpt lat="49.28213" lon="0.17876">
        <ele>-26.3</ele>
        <time>2021-01-30T12:08:39Z</time>
      </trkpt>
      <trkpt lat="49.28217" lon="0.17871">
        <ele>-29.18</ele>
        <time>2021-01-30T12:08:46Z</time>
      </trkpt>
      <trkpt lat="49.28221" lon="0.17867">
        <ele>-32.55</ele>
        <time>2021-01-30T12:08:52Z</time>
      </trkpt>
      <trkpt lat="49.28228" lon="0.17863">
        <ele>-35.43</ele>
        <time>2021-01-30T12:08:58Z</time>
      </trkpt>
      <trkpt lat="49.28232" lon="0.17862">
        <ele>-38.8</ele>
        <time>2021-01-30T12:09:02Z</time>
      </trkpt>
      <trkpt lat="49.28233" lon="0.17861">
        <ele>-38.8</ele>
        <time>2021-01-30T12:09:03Z</time>
      </trkpt>
      <trkpt lat="49.28255" lon="0.17874">
        <ele>-41.68</ele>
        <time>2021-01-30T12:09:21Z</time>
      </trkpt>
      <trkpt lat="49.28282" lon="0.17899">
        <ele>-44.56</ele>
        <time>2021-01-30T12:09:45Z</time>
      </trkpt>
      <trkpt lat="49.28304" lon="0.1792">
        <ele>-45.04</ele>
        <time>2021-01-30T12:10:06Z</time>
      </trkpt>
      <trkpt lat="49.28319" lon="0.17935">
        <ele>-46.01</ele>
        <time>2021-01-30T12:10:25Z</time>
      </trkpt>
      <trkpt lat="49.28335" lon="0.17951">
        <ele>-46.49</ele>
        <time>2021-01-30T12:10:42Z</time>
      </trkpt>
      <trkpt lat="49.28355" lon="0.17966">
        <ele>-46.97</ele>
        <time>2021-01-30T12:11:04Z</time>
      </trkpt>
      <trkpt lat="49.28383" lon="0.17986">
        <ele>-45.53</ele>
        <time>2021-01-30T12:11:27Z</time>
      </trkpt>
      <trkpt lat="49.28412" lon="0.17991">
        <ele>-45.53</ele>
        <time>2021-01-30T12:11:48Z</time>
      </trkpt>
      <trkpt lat="49.28434" lon="0.18009">
        <ele>-45.04</ele>
        <time>2021-01-30T12:12:11Z</time>
      </trkpt>
      <trkpt lat="49.28445" lon="0.18037">
        <ele>-45.04</ele>
        <time>2021-01-30T12:12:32Z</time>
      </trkpt>
      <trkpt lat="49.28478" lon="0.18057">
        <ele>-44.56</ele>
        <time>2021-01-30T12:12:52Z</time>
      </trkpt>
      <trkpt lat="49.28512" lon="0.18075">
        <ele>-44.08</ele>
        <time>2021-01-30T12:13:16Z</time>
      </trkpt>
      <trkpt lat="49.28526" lon="0.18092">
        <ele>-44.08</ele>
        <time>2021-01-30T12:13:30Z</time>
      </trkpt>
      <trkpt lat="49.2853" lon="0.18103">
        <ele>-44.56</ele>
        <time>2021-01-30T12:13:37Z</time>
      </trkpt>
      <trkpt lat="49.28542" lon="0.18142">
        <ele>-42.64</ele>
        <time>2021-01-30T12:14:00Z</time>
      </trkpt>
      <trkpt lat="49.2856" lon="0.1818">
        <ele>-42.16</ele>
        <time>2021-01-30T12:14:23Z</time>
      </trkpt>
      <trkpt lat="49.28572" lon="0.18211">
        <ele>-42.16</ele>
        <time>2021-01-30T12:14:42Z</time>
      </trkpt>
      <trkpt lat="49.28575" lon="0.18217">
        <ele>-41.68</ele>
        <time>2021-01-30T12:14:47Z</time>
      </trkpt>
      <trkpt lat="49.28585" lon="0.18241">
        <ele>-40.24</ele>
        <time>2021-01-30T12:15:02Z</time>
      </trkpt>
      <trkpt lat="49.28591" lon="0.18273">
        <ele>-39.76</ele>
        <time>2021-01-30T12:15:24Z</time>
      </trkpt>
      <trkpt lat="49.28601" lon="0.18311">
        <ele>-38.8</ele>
        <time>2021-01-30T12:15:45Z</time>
      </trkpt>
      <trkpt lat="49.28608" lon="0.1834">
        <ele>-38.8</ele>
        <time>2021-01-30T12:16:02Z</time>
      </trkpt>
      <trkpt lat="49.28618" lon="0.18381">
        <ele>-39.76</ele>
        <time>2021-01-30T12:16:23Z</time>
      </trkpt>
      <trkpt lat="49.28626" lon="0.18399">
        <ele>-39.28</ele>
        <time>2021-01-30T12:16:38Z</time>
      </trkpt>
      <trkpt lat="49.28632" lon="0.18422">
        <ele>-39.76</ele>
        <time>2021-01-30T12:16:57Z</time>
      </trkpt>
      <trkpt lat="49.28639" lon="0.18473">
        <ele>-39.28</ele>
        <time>2021-01-30T12:17:19Z</time>
      </trkpt>
      <trkpt lat="49.28658" lon="0.18513">
        <ele>-39.28</ele>
        <time>2021-01-30T12:17:42Z</time>
      </trkpt>
      <trkpt lat="49.28668" lon="0.18542">
        <ele>-37.35</ele>
        <time>2021-01-30T12:18:04Z</time>
      </trkpt>
      <trkpt lat="49.2867" lon="0.18552">
        <ele>-37.83</ele>
        <time>2021-01-30T12:18:24Z</time>
      </trkpt>
      <trkpt lat="49.28671" lon="0.1855">
        <ele>-37.83</ele>
        <time>2021-01-30T12:18:45Z</time>
      </trkpt>
      <trkpt lat="49.28677" lon="0.18553">
        <ele>-35.91</ele>
        <time>2021-01-30T12:19:08Z</time>
      </trkpt>
      <trkpt lat="49.28677" lon="0.18553">
        <ele>-35.91</ele>
        <time>2021-01-30T12:19:09Z</time>
      </trkpt>
      <trkpt lat="49.28679" lon="0.18553">
        <ele>-35.43</ele>
        <time>2021-01-30T12:19:33Z</time>
      </trkpt>
      <trkpt lat="49.28684" lon="0.18556">
        <ele>-36.39</ele>
        <time>2021-01-30T12:19:57Z</time>
      </trkpt>
      <trkpt lat="49.28695" lon="0.18566">
        <ele>-35.91</ele>
        <time>2021-01-30T12:20:15Z</time>
      </trkpt>
      <trkpt lat="49.28713" lon="0.18585">
        <ele>-35.91</ele>
        <time>2021-01-30T12:20:35Z</time>
      </trkpt>
      <trkpt lat="49.2873" lon="0.18606">
        <ele>-35.91</ele>
        <time>2021-01-30T12:20:54Z</time>
      </trkpt>
      <trkpt lat="49.28746" lon="0.18631">
        <ele>-35.43</ele>
        <time>2021-01-30T12:21:12Z</time>
      </trkpt>
      <trkpt lat="49.28761" lon="0.18664">
        <ele>-35.43</ele>
        <time>2021-01-30T12:21:32Z</time>
      </trkpt>
      <trkpt lat="49.28778" lon="0.18678">
        <ele>-34.95</ele>
        <time>2021-01-30T12:21:55Z</time>
      </trkpt>
      <trkpt lat="49.28803" lon="0.18689">
        <ele>-34.95</ele>
        <time>2021-01-30T12:22:15Z</time>
      </trkpt>
      <trkpt lat="49.28822" lon="0.18691">
        <ele>-34.47</ele>
        <time>2021-01-30T12:22:32Z</time>
      </trkpt>
      <trkpt lat="49.2884" lon="0.18686">
        <ele>-33.99</ele>
        <time>2021-01-30T12:22:48Z</time>
      </trkpt>
      <trkpt lat="49.28865" lon="0.18712">
        <ele>-32.55</ele>
        <time>2021-01-30T12:23:05Z</time>
      </trkpt>
      <trkpt lat="49.28885" lon="0.18733">
        <ele>-32.07</ele>
        <time>2021-01-30T12:23:27Z</time>
      </trkpt>
      <trkpt lat="49.28915" lon="0.18764">
        <ele>-31.59</ele>
        <time>2021-01-30T12:23:53Z</time>
      </trkpt>
      <trkpt lat="49.28938" lon="0.18792">
        <ele>-31.11</ele>
        <time>2021-01-30T12:24:17Z</time>
      </trkpt>
      <trkpt lat="49.28951" lon="0.1881">
        <ele>-31.11</ele>
        <time>2021-01-30T12:24:37Z</time>
      </trkpt>
      <trkpt lat="49.28974" lon="0.18839">
        <ele>-30.14</ele>
        <time>2021-01-30T12:25:01Z</time>
      </trkpt>
      <trkpt lat="49.28978" lon="0.18855">
        <ele>-29.66</ele>
        <time>2021-01-30T12:25:15Z</time>
      </trkpt>
      <trkpt lat="49.28998" lon="0.18884">
        <ele>-29.66</ele>
        <time>2021-01-30T12:25:34Z</time>
      </trkpt>
      <trkpt lat="49.29019" lon="0.18916">
        <ele>-29.18</ele>
        <time>2021-01-30T12:25:56Z</time>
      </trkpt>
      <trkpt lat="49.29038" lon="0.18942">
        <ele>-28.7</ele>
        <time>2021-01-30T12:26:17Z</time>
      </trkpt>
      <trkpt lat="49.29052" lon="0.18965">
        <ele>-28.22</ele>
        <time>2021-01-30T12:26:36Z</time>
      </trkpt>
      <trkpt lat="49.29066" lon="0.18992">
        <ele>-28.22</ele>
        <time>2021-01-30T12:26:56Z</time>
      </trkpt>
      <trkpt lat="49.29082" lon="0.19019">
        <ele>-26.78</ele>
        <time>2021-01-30T12:27:17Z</time>
      </trkpt>
      <trkpt lat="49.291" lon="0.19036">
        <ele>-25.82</ele>
        <time>2021-01-30T12:27:33Z</time>
      </trkpt>
      <trkpt lat="49.29108" lon="0.1903">
        <ele>-26.78</ele>
        <time>2021-01-30T12:27:44Z</time>
      </trkpt>
      <trkpt lat="49.29108" lon="0.19029">
        <ele>-25.34</ele>
        <time>2021-01-30T12:27:48Z</time>
      </trkpt>
      <trkpt lat="49.29128" lon="0.19007">
        <ele>-26.3</ele>
        <time>2021-01-30T12:28:08Z</time>
      </trkpt>
      <trkpt lat="49.2915" lon="0.18982">
        <ele>-25.82</ele>
        <time>2021-01-30T12:28:30Z</time>
      </trkpt>
      <trkpt lat="49.29157" lon="0.1898">
        <ele>-25.82</ele>
        <time>2021-01-30T12:28:35Z</time>
      </trkpt>
      <trkpt lat="49.29176" lon="0.18974">
        <ele>-24.38</ele>
        <time>2021-01-30T12:28:51Z</time>
      </trkpt>
      <trkpt lat="49.29191" lon="0.18972">
        <ele>-23.41</ele>
        <time>2021-01-30T12:29:06Z</time>
      </trkpt>
      <trkpt lat="49.29212" lon="0.18965">
        <ele>-21.97</ele>
        <time>2021-01-30T12:29:26Z</time>
      </trkpt>
      <trkpt lat="49.29234" lon="0.18947">
        <ele>-21.01</ele>
        <time>2021-01-30T12:29:43Z</time>
      </trkpt>
      <trkpt lat="49.29262" lon="0.1894">
        <ele>-19.57</ele>
        <time>2021-01-30T12:30:05Z</time>
      </trkpt>
      <trkpt lat="49.29288" lon="0.18931">
        <ele>-18.61</ele>
        <time>2021-01-30T12:30:25Z</time>
      </trkpt>
      <trkpt lat="49.29312" lon="0.18933">
        <ele>-17.65</ele>
        <time>2021-01-30T12:30:45Z</time>
      </trkpt>
      <trkpt lat="49.29339" lon="0.18925">
        <ele>-16.21</ele>
        <time>2021-01-30T12:31:07Z</time>
      </trkpt>
      <trkpt lat="49.29364" lon="0.1892">
        <ele>-15.24</ele>
        <time>2021-01-30T12:31:29Z</time>
      </trkpt>
      <trkpt lat="49.2939" lon="0.18909">
        <ele>-14.28</ele>
        <time>2021-01-30T12:31:51Z</time>
      </trkpt>
      <trkpt lat="49.29408" lon="0.18907">
        <ele>-13.8</ele>
        <time>2021-01-30T12:32:08Z</time>
      </trkpt>
      <trkpt lat="49.29428" lon="0.18903">
        <ele>-13.32</ele>
        <time>2021-01-30T12:32:28Z</time>
      </trkpt>
      <trkpt lat="49.29405" lon="0.1888">
        <ele>-11.88</ele>
        <time>2021-01-30T12:32:49Z</time>
      </trkpt>
      <trkpt lat="49.29385" lon="0.18858">
        <ele>-10.44</ele>
        <time>2021-01-30T12:33:11Z</time>
      </trkpt>
      <trkpt lat="49.294" lon="0.18864">
        <ele>-9.48</ele>
        <time>2021-01-30T12:33:29Z</time>
      </trkpt>
      <trkpt lat="49.29426" lon="0.1888">
        <ele>-9</ele>
        <time>2021-01-30T12:33:52Z</time>
      </trkpt>
      <trkpt lat="49.29452" lon="0.18901">
        <ele>-8.51</ele>
        <time>2021-01-30T12:34:17Z</time>
      </trkpt>
      <trkpt lat="49.29459" lon="0.18899">
        <ele>-8.51</ele>
        <time>2021-01-30T12:34:35Z</time>
      </trkpt>
      <trkpt lat="49.29459" lon="0.18899">
        <ele>-8.51</ele>
        <time>2021-01-30T12:34:36Z</time>
      </trkpt>
      <trkpt lat="49.29457" lon="0.189">
        <ele>-9</ele>
        <time>2021-01-30T12:34:42Z</time>
      </trkpt>
      <trkpt lat="49.29459" lon="0.189">
        <ele>-8.51</ele>
        <time>2021-01-30T12:35:05Z</time>
      </trkpt>
      <trkpt lat="49.29458" lon="0.18899">
        <ele>-8.51</ele>
        <time>2021-01-30T12:35:29Z</time>
      </trkpt>
      <trkpt lat="49.2946" lon="0.18896">
        <ele>-9</ele>
        <time>2021-01-30T12:35:51Z</time>
      </trkpt>
      <trkpt lat="49.29469" lon="0.18891">
        <ele>-9</ele>
        <time>2021-01-30T12:36:06Z</time>
      </trkpt>
      <trkpt lat="49.29472" lon="0.18887">
        <ele>-9</ele>
        <time>2021-01-30T12:36:24Z</time>
      </trkpt>
      <trkpt lat="49.29487" lon="0.18866">
        <ele>-8.51</ele>
        <time>2021-01-30T12:36:42Z</time>
      </trkpt>
      <trkpt lat="49.29488" lon="0.18866">
        <ele>-8.51</ele>
        <time>2021-01-30T12:36:43Z</time>
      </trkpt>
      <trkpt lat="49.2952" lon="0.18857">
        <ele>-7.07</ele>
        <time>2021-01-30T12:37:10Z</time>
      </trkpt>
      <trkpt lat="49.29548" lon="0.18846">
        <ele>-6.59</ele>
        <time>2021-01-30T12:37:35Z</time>
      </trkpt>
      <trkpt lat="49.29579" lon="0.18834">
        <ele>-6.11</ele>
        <time>2021-01-30T12:38:00Z</time>
      </trkpt>
      <trkpt lat="49.29611" lon="0.18817">
        <ele>-4.67</ele>
        <time>2021-01-30T12:38:25Z</time>
      </trkpt>
      <trkpt lat="49.29637" lon="0.18809">
        <ele>-4.19</ele>
        <time>2021-01-30T12:38:47Z</time>
      </trkpt>
      <trkpt lat="49.29667" lon="0.18798">
        <ele>-3.71</ele>
        <time>2021-01-30T12:39:13Z</time>
      </trkpt>
      <trkpt lat="49.29697" lon="0.18787">
        <ele>-2.75</ele>
        <time>2021-01-30T12:39:38Z</time>
      </trkpt>
      <trkpt lat="49.2971" lon="0.18781">
        <ele>-2.27</ele>
        <time>2021-01-30T12:39:48Z</time>
      </trkpt>
      <trkpt lat="49.29723" lon="0.18757">
        <ele>-1.79</ele>
        <time>2021-01-30T12:40:06Z</time>
      </trkpt>
      <trkpt lat="49.29736" lon="0.18715">
        <ele>-1.3</ele>
        <time>2021-01-30T12:40:32Z</time>
      </trkpt>
      <trkpt lat="49.29739" lon="0.187">
        <ele>-2.75</ele>
        <time>2021-01-30T12:40:40Z</time>
      </trkpt>
      <trkpt lat="49.29752" lon="0.18664">
        <ele>-2.27</ele>
        <time>2021-01-30T12:41:03Z</time>
      </trkpt>
      <trkpt lat="49.29766" lon="0.18617">
        <ele>-1.79</ele>
        <time>2021-01-30T12:41:28Z</time>
      </trkpt>
      <trkpt lat="49.29767" lon="0.18614">
        <ele>-0.34</ele>
        <time>2021-01-30T12:41:30Z</time>
      </trkpt>
      <trkpt lat="49.29789" lon="0.18574">
        <ele>-0.34</ele>
        <time>2021-01-30T12:42:00Z</time>
      </trkpt>
      <trkpt lat="49.2981" lon="0.18527">
        <ele>0.14</ele>
        <time>2021-01-30T12:42:30Z</time>
      </trkpt>
      <trkpt lat="49.29828" lon="0.18482">
        <ele>0.14</ele>
        <time>2021-01-30T12:42:59Z</time>
      </trkpt>
      <trkpt lat="49.29846" lon="0.18441">
        <ele>1.1</ele>
        <time>2021-01-30T12:43:26Z</time>
      </trkpt>
      <trkpt lat="49.2986" lon="0.18406">
        <ele>1.1</ele>
        <time>2021-01-30T12:43:50Z</time>
      </trkpt>
      <trkpt lat="49.29876" lon="0.18375">
        <ele>1.58</ele>
        <time>2021-01-30T12:44:14Z</time>
      </trkpt>
      <trkpt lat="49.29891" lon="0.1833">
        <ele>1.58</ele>
        <time>2021-01-30T12:44:39Z</time>
      </trkpt>
      <trkpt lat="49.2991" lon="0.1828">
        <ele>2.06</ele>
        <time>2021-01-30T12:45:08Z</time>
      </trkpt>
      <trkpt lat="49.29927" lon="0.18241">
        <ele>1.1</ele>
        <time>2021-01-30T12:45:34Z</time>
      </trkpt>
      <trkpt lat="49.2994" lon="0.18207">
        <ele>0.62</ele>
        <time>2021-01-30T12:45:57Z</time>
      </trkpt>
      <trkpt lat="49.29959" lon="0.18165">
        <ele>1.1</ele>
        <time>2021-01-30T12:46:24Z</time>
      </trkpt>
      <trkpt lat="49.2997" lon="0.18125">
        <ele>1.1</ele>
        <time>2021-01-30T12:46:47Z</time>
      </trkpt>
      <trkpt lat="49.29982" lon="0.18092">
        <ele>1.1</ele>
        <time>2021-01-30T12:47:12Z</time>
      </trkpt>
      <trkpt lat="49.29994" lon="0.18061">
        <ele>1.58</ele>
        <time>2021-01-30T12:47:36Z</time>
      </trkpt>
      <trkpt lat="49.30013" lon="0.18037">
        <ele>1.58</ele>
        <time>2021-01-30T12:48:01Z</time>
      </trkpt>
      <trkpt lat="49.30038" lon="0.18007">
        <ele>1.58</ele>
        <time>2021-01-30T12:48:28Z</time>
      </trkpt>
      <trkpt lat="49.30063" lon="0.17973">
        <ele>1.1</ele>
        <time>2021-01-30T12:48:55Z</time>
      </trkpt>
      <trkpt lat="49.30082" lon="0.17949">
        <ele>1.1</ele>
        <time>2021-01-30T12:49:17Z</time>
      </trkpt>
      <trkpt lat="49.30101" lon="0.17917">
        <ele>0.62</ele>
        <time>2021-01-30T12:49:41Z</time>
      </trkpt>
      <trkpt lat="49.3012" lon="0.17894">
        <ele>0.62</ele>
        <time>2021-01-30T12:50:02Z</time>
      </trkpt>
      <trkpt lat="49.30139" lon="0.17865">
        <ele>2.06</ele>
        <time>2021-01-30T12:50:25Z</time>
      </trkpt>
      <trkpt lat="49.30163" lon="0.17833">
        <ele>2.06</ele>
        <time>2021-01-30T12:50:47Z</time>
      </trkpt>
      <trkpt lat="49.30186" lon="0.178">
        <ele>2.06</ele>
        <time>2021-01-30T12:51:12Z</time>
      </trkpt>
      <trkpt lat="49.30207" lon="0.17768">
        <ele>2.54</ele>
        <time>2021-01-30T12:51:36Z</time>
      </trkpt>
      <trkpt lat="49.30225" lon="0.17742">
        <ele>2.54</ele>
        <time>2021-01-30T12:51:58Z</time>
      </trkpt>
      <trkpt lat="49.30244" lon="0.17711">
        <ele>2.54</ele>
        <time>2021-01-30T12:52:23Z</time>
      </trkpt>
      <trkpt lat="49.30262" lon="0.17681">
        <ele>2.54</ele>
        <time>2021-01-30T12:52:48Z</time>
      </trkpt>
      <trkpt lat="49.30282" lon="0.17652">
        <ele>3.02</ele>
        <time>2021-01-30T12:53:09Z</time>
      </trkpt>
      <trkpt lat="49.30304" lon="0.17617">
        <ele>3.02</ele>
        <time>2021-01-30T12:53:33Z</time>
      </trkpt>
      <trkpt lat="49.30323" lon="0.1758">
        <ele>3.02</ele>
        <time>2021-01-30T12:53:59Z</time>
      </trkpt>
      <trkpt lat="49.30339" lon="0.17553">
        <ele>1.58</ele>
        <time>2021-01-30T12:54:25Z</time>
      </trkpt>
      <trkpt lat="49.30372" lon="0.17528">
        <ele>0.62</ele>
        <time>2021-01-30T12:54:50Z</time>
      </trkpt>
      <trkpt lat="49.30389" lon="0.17536">
        <ele>0.62</ele>
        <time>2021-01-30T12:55:10Z</time>
      </trkpt>
      <trkpt lat="49.30396" lon="0.17543">
        <ele>1.58</ele>
        <time>2021-01-30T12:55:18Z</time>
      </trkpt>
      <trkpt lat="49.30415" lon="0.17565">
        <ele>3.02</ele>
        <time>2021-01-30T12:55:40Z</time>
      </trkpt>
      <trkpt lat="49.30427" lon="0.17583">
        <ele>5.42</ele>
        <time>2021-01-30T12:55:54Z</time>
      </trkpt>
      <trkpt lat="49.3045" lon="0.17607">
        <ele>6.39</ele>
        <time>2021-01-30T12:56:20Z</time>
      </trkpt>
      <trkpt lat="49.30476" lon="0.17634">
        <ele>8.31</ele>
        <time>2021-01-30T12:56:48Z</time>
      </trkpt>
      <trkpt lat="49.305" lon="0.17661">
        <ele>9.75</ele>
        <time>2021-01-30T12:57:11Z</time>
      </trkpt>
      <trkpt lat="49.3053" lon="0.17687">
        <ele>10.71</ele>
        <time>2021-01-30T12:57:42Z</time>
      </trkpt>
      <trkpt lat="49.30533" lon="0.17722">
        <ele>11.19</ele>
        <time>2021-01-30T12:58:04Z</time>
      </trkpt>
      <trkpt lat="49.30519" lon="0.17753">
        <ele>10.23</ele>
        <time>2021-01-30T12:58:27Z</time>
      </trkpt>
      <trkpt lat="49.30502" lon="0.17783">
        <ele>9.75</ele>
        <time>2021-01-30T12:58:50Z</time>
      </trkpt>
      <trkpt lat="49.30481" lon="0.1782">
        <ele>8.79</ele>
        <time>2021-01-30T12:59:16Z</time>
      </trkpt>
      <trkpt lat="49.30467" lon="0.17858">
        <ele>8.79</ele>
        <time>2021-01-30T12:59:38Z</time>
      </trkpt>
      <trkpt lat="49.30455" lon="0.17897">
        <ele>9.27</ele>
        <time>2021-01-30T13:00:02Z</time>
      </trkpt>
      <trkpt lat="49.30452" lon="0.17939">
        <ele>9.27</ele>
        <time>2021-01-30T13:00:27Z</time>
      </trkpt>
      <trkpt lat="49.30445" lon="0.17975">
        <ele>10.71</ele>
        <time>2021-01-30T13:00:53Z</time>
      </trkpt>
      <trkpt lat="49.30436" lon="0.18018">
        <ele>11.67</ele>
        <time>2021-01-30T13:01:18Z</time>
      </trkpt>
      <trkpt lat="49.3044" lon="0.18059">
        <ele>13.12</ele>
        <time>2021-01-30T13:01:43Z</time>
      </trkpt>
      <trkpt lat="49.30436" lon="0.1811">
        <ele>13.6</ele>
        <time>2021-01-30T13:02:05Z</time>
      </trkpt>
      <trkpt lat="49.30434" lon="0.18127">
        <ele>12.63</ele>
        <time>2021-01-30T13:02:22Z</time>
      </trkpt>
      <trkpt lat="49.30434" lon="0.18131">
        <ele>14.08</ele>
        <time>2021-01-30T13:02:26Z</time>
      </trkpt>
      <trkpt lat="49.30432" lon="0.18164">
        <ele>14.56</ele>
        <time>2021-01-30T13:02:47Z</time>
      </trkpt>
      <trkpt lat="49.30426" lon="0.18201">
        <ele>15.04</ele>
        <time>2021-01-30T13:03:10Z</time>
      </trkpt>
      <trkpt lat="49.30414" lon="0.18233">
        <ele>15.52</ele>
        <time>2021-01-30T13:03:36Z</time>
      </trkpt>
      <trkpt lat="49.30403" lon="0.18288">
        <ele>16</ele>
        <time>2021-01-30T13:04:01Z</time>
      </trkpt>
      <trkpt lat="49.30403" lon="0.18336">
        <ele>16.96</ele>
        <time>2021-01-30T13:04:28Z</time>
      </trkpt>
      <trkpt lat="49.304" lon="0.18364">
        <ele>17.44</ele>
        <time>2021-01-30T13:04:47Z</time>
      </trkpt>
      <trkpt lat="49.304" lon="0.18403">
        <ele>17.92</ele>
        <time>2021-01-30T13:05:09Z</time>
      </trkpt>
      <trkpt lat="49.30401" lon="0.18453">
        <ele>18.88</ele>
        <time>2021-01-30T13:05:34Z</time>
      </trkpt>
      <trkpt lat="49.30399" lon="0.185">
        <ele>19.36</ele>
        <time>2021-01-30T13:05:58Z</time>
      </trkpt>
      <trkpt lat="49.30386" lon="0.18526">
        <ele>19.36</ele>
        <time>2021-01-30T13:06:18Z</time>
      </trkpt>
      <trkpt lat="49.30385" lon="0.18527">
        <ele>19.36</ele>
        <time>2021-01-30T13:06:19Z</time>
      </trkpt>
      <trkpt lat="49.30345" lon="0.18546">
        <ele>18.88</ele>
        <time>2021-01-30T13:06:52Z</time>
      </trkpt>
      <trkpt lat="49.30307" lon="0.18556">
        <ele>18.4</ele>
        <time>2021-01-30T13:07:24Z</time>
      </trkpt>
      <trkpt lat="49.303" lon="0.1856">
        <ele>17.92</ele>
        <time>2021-01-30T13:07:39Z</time>
      </trkpt>
      <trkpt lat="49.30294" lon="0.18562">
        <ele>17.92</ele>
        <time>2021-01-30T13:07:59Z</time>
      </trkpt>
      <trkpt lat="49.30279" lon="0.18568">
        <ele>17.92</ele>
        <time>2021-01-30T13:08:17Z</time>
      </trkpt>
      <trkpt lat="49.30293" lon="0.18594">
        <ele>17.44</ele>
        <time>2021-01-30T13:08:38Z</time>
      </trkpt>
      <trkpt lat="49.30308" lon="0.18604">
        <ele>18.88</ele>
        <time>2021-01-30T13:09:00Z</time>
      </trkpt>
      <trkpt lat="49.30318" lon="0.18613">
        <ele>19.36</ele>
        <time>2021-01-30T13:09:16Z</time>
      </trkpt>
      <trkpt lat="49.30328" lon="0.18625">
        <ele>19.84</ele>
        <time>2021-01-30T13:09:35Z</time>
      </trkpt>
      <trkpt lat="49.30347" lon="0.18639">
        <ele>20.81</ele>
        <time>2021-01-30T13:09:57Z</time>
      </trkpt>
      <trkpt lat="49.30362" lon="0.18651">
        <ele>21.29</ele>
        <time>2021-01-30T13:10:22Z</time>
      </trkpt>
      <trkpt lat="49.30381" lon="0.18665">
        <ele>21.77</ele>
        <time>2021-01-30T13:10:45Z</time>
      </trkpt>
      <trkpt lat="49.30398" lon="0.18677">
        <ele>22.73</ele>
        <time>2021-01-30T13:11:08Z</time>
      </trkpt>
      <trkpt lat="49.30406" lon="0.18682">
        <ele>23.69</ele>
        <time>2021-01-30T13:11:26Z</time>
      </trkpt>
      <trkpt lat="49.30426" lon="0.18699">
        <ele>25.13</ele>
        <time>2021-01-30T13:11:51Z</time>
      </trkpt>
      <trkpt lat="49.30432" lon="0.18703">
        <ele>27.05</ele>
        <time>2021-01-30T13:11:58Z</time>
      </trkpt>
      <trkpt lat="49.30434" lon="0.18704">
        <ele>25.61</ele>
        <time>2021-01-30T13:12:00Z</time>
      </trkpt>
      <trkpt lat="49.3046" lon="0.18726">
        <ele>27.05</ele>
        <time>2021-01-30T13:12:25Z</time>
      </trkpt>
      <trkpt lat="49.30485" lon="0.18742">
        <ele>28.02</ele>
        <time>2021-01-30T13:12:47Z</time>
      </trkpt>
      <trkpt lat="49.30511" lon="0.1876">
        <ele>28.98</ele>
        <time>2021-01-30T13:13:11Z</time>
      </trkpt>
      <trkpt lat="49.30532" lon="0.18774">
        <ele>30.42</ele>
        <time>2021-01-30T13:13:34Z</time>
      </trkpt>
      <trkpt lat="49.30551" lon="0.18794">
        <ele>31.38</ele>
        <time>2021-01-30T13:13:59Z</time>
      </trkpt>
      <trkpt lat="49.30578" lon="0.18811">
        <ele>33.3</ele>
        <time>2021-01-30T13:14:26Z</time>
      </trkpt>
      <trkpt lat="49.30605" lon="0.18834">
        <ele>34.26</ele>
        <time>2021-01-30T13:14:50Z</time>
      </trkpt>
      <trkpt lat="49.30628" lon="0.18849">
        <ele>36.19</ele>
        <time>2021-01-30T13:15:11Z</time>
      </trkpt>
      <trkpt lat="49.30646" lon="0.18868">
        <ele>37.15</ele>
        <time>2021-01-30T13:15:31Z</time>
      </trkpt>
      <trkpt lat="49.30668" lon="0.18885">
        <ele>38.11</ele>
        <time>2021-01-30T13:15:52Z</time>
      </trkpt>
      <trkpt lat="49.30684" lon="0.18901">
        <ele>40.03</ele>
        <time>2021-01-30T13:16:13Z</time>
      </trkpt>
      <trkpt lat="49.30698" lon="0.18911">
        <ele>41.47</ele>
        <time>2021-01-30T13:16:34Z</time>
      </trkpt>
      <trkpt lat="49.30704" lon="0.18913">
        <ele>40.99</ele>
        <time>2021-01-30T13:16:56Z</time>
      </trkpt>
      <trkpt lat="49.30724" lon="0.18928">
        <ele>42.92</ele>
        <time>2021-01-30T13:17:18Z</time>
      </trkpt>
      <trkpt lat="49.30741" lon="0.18946">
        <ele>45.8</ele>
        <time>2021-01-30T13:17:41Z</time>
      </trkpt>
      <trkpt lat="49.30759" lon="0.18959">
        <ele>46.76</ele>
        <time>2021-01-30T13:18:02Z</time>
      </trkpt>
      <trkpt lat="49.30777" lon="0.18971">
        <ele>49.16</ele>
        <time>2021-01-30T13:18:23Z</time>
      </trkpt>
      <trkpt lat="49.30792" lon="0.18989">
        <ele>51.57</ele>
        <time>2021-01-30T13:18:44Z</time>
      </trkpt>
      <trkpt lat="49.30816" lon="0.19008">
        <ele>54.45</ele>
        <time>2021-01-30T13:19:09Z</time>
      </trkpt>
      <trkpt lat="49.3084" lon="0.19022">
        <ele>56.37</ele>
        <time>2021-01-30T13:19:33Z</time>
      </trkpt>
      <trkpt lat="49.30855" lon="0.1903">
        <ele>58.3</ele>
        <time>2021-01-30T13:19:48Z</time>
      </trkpt>
      <trkpt lat="49.30872" lon="0.19047">
        <ele>60.22</ele>
        <time>2021-01-30T13:20:11Z</time>
      </trkpt>
      <trkpt lat="49.30878" lon="0.19081">
        <ele>62.14</ele>
        <time>2021-01-30T13:20:39Z</time>
      </trkpt>
      <trkpt lat="49.30871" lon="0.19125">
        <ele>64.07</ele>
        <time>2021-01-30T13:21:03Z</time>
      </trkpt>
      <trkpt lat="49.30869" lon="0.19151">
        <ele>63.58</ele>
        <time>2021-01-30T13:21:16Z</time>
      </trkpt>
      <trkpt lat="49.30865" lon="0.19186">
        <ele>63.1</ele>
        <time>2021-01-30T13:21:39Z</time>
      </trkpt>
      <trkpt lat="49.30845" lon="0.19221">
        <ele>64.55</ele>
        <time>2021-01-30T13:22:02Z</time>
      </trkpt>
      <trkpt lat="49.30838" lon="0.1923">
        <ele>63.1</ele>
        <time>2021-01-30T13:22:10Z</time>
      </trkpt>
      <trkpt lat="49.30815" lon="0.19264">
        <ele>62.62</ele>
        <time>2021-01-30T13:22:37Z</time>
      </trkpt>
      <trkpt lat="49.30798" lon="0.19305">
        <ele>61.18</ele>
        <time>2021-01-30T13:23:06Z</time>
      </trkpt>
      <trkpt lat="49.30779" lon="0.1934">
        <ele>58.78</ele>
        <time>2021-01-30T13:23:32Z</time>
      </trkpt>
      <trkpt lat="49.30762" lon="0.19375">
        <ele>57.34</ele>
        <time>2021-01-30T13:23:56Z</time>
      </trkpt>
      <trkpt lat="49.30748" lon="0.19426">
        <ele>53.97</ele>
        <time>2021-01-30T13:24:22Z</time>
      </trkpt>
      <trkpt lat="49.3075" lon="0.19464">
        <ele>53.49</ele>
        <time>2021-01-30T13:24:46Z</time>
      </trkpt>
      <trkpt lat="49.30754" lon="0.19505">
        <ele>54.45</ele>
        <time>2021-01-30T13:25:11Z</time>
      </trkpt>
      <trkpt lat="49.30748" lon="0.19539">
        <ele>55.41</ele>
        <time>2021-01-30T13:25:33Z</time>
      </trkpt>
      <trkpt lat="49.3074" lon="0.19569">
        <ele>57.34</ele>
        <time>2021-01-30T13:25:58Z</time>
      </trkpt>
      <trkpt lat="49.30731" lon="0.196">
        <ele>59.26</ele>
        <time>2021-01-30T13:26:19Z</time>
      </trkpt>
      <trkpt lat="49.30717" lon="0.19631">
        <ele>60.7</ele>
        <time>2021-01-30T13:26:41Z</time>
      </trkpt>
      <trkpt lat="49.30705" lon="0.19666">
        <ele>62.14</ele>
        <time>2021-01-30T13:27:03Z</time>
      </trkpt>
      <trkpt lat="49.30702" lon="0.19697">
        <ele>62.62</ele>
        <time>2021-01-30T13:27:17Z</time>
      </trkpt>
      <trkpt lat="49.30694" lon="0.19707">
        <ele>61.66</ele>
        <time>2021-01-30T13:27:28Z</time>
      </trkpt>
      <trkpt lat="49.30685" lon="0.19746">
        <ele>61.18</ele>
        <time>2021-01-30T13:27:50Z</time>
      </trkpt>
      <trkpt lat="49.30676" lon="0.19772">
        <ele>62.62</ele>
        <time>2021-01-30T13:28:06Z</time>
      </trkpt>
      <trkpt lat="49.30664" lon="0.198">
        <ele>61.18</ele>
        <time>2021-01-30T13:28:30Z</time>
      </trkpt>
      <trkpt lat="49.30642" lon="0.1983">
        <ele>60.7</ele>
        <time>2021-01-30T13:28:50Z</time>
      </trkpt>
      <trkpt lat="49.30623" lon="0.19852">
        <ele>59.26</ele>
        <time>2021-01-30T13:29:10Z</time>
      </trkpt>
      <trkpt lat="49.30607" lon="0.19874">
        <ele>58.78</ele>
        <time>2021-01-30T13:29:33Z</time>
      </trkpt>
      <trkpt lat="49.30596" lon="0.19896">
        <ele>58.3</ele>
        <time>2021-01-30T13:29:54Z</time>
      </trkpt>
      <trkpt lat="49.30585" lon="0.19929">
        <ele>59.74</ele>
        <time>2021-01-30T13:30:16Z</time>
      </trkpt>
      <trkpt lat="49.30575" lon="0.19972">
        <ele>60.22</ele>
        <time>2021-01-30T13:30:37Z</time>
      </trkpt>
      <trkpt lat="49.30573" lon="0.20003">
        <ele>61.18</ele>
        <time>2021-01-30T13:31:00Z</time>
      </trkpt>
      <trkpt lat="49.30568" lon="0.20039">
        <ele>60.22</ele>
        <time>2021-01-30T13:31:20Z</time>
      </trkpt>
      <trkpt lat="49.30558" lon="0.20079">
        <ele>59.26</ele>
        <time>2021-01-30T13:31:41Z</time>
      </trkpt>
      <trkpt lat="49.30535" lon="0.20117">
        <ele>57.34</ele>
        <time>2021-01-30T13:32:06Z</time>
      </trkpt>
      <trkpt lat="49.30513" lon="0.20116">
        <ele>53.97</ele>
        <time>2021-01-30T13:32:28Z</time>
      </trkpt>
      <trkpt lat="49.30494" lon="0.20113">
        <ele>51.09</ele>
        <time>2021-01-30T13:32:51Z</time>
      </trkpt>
      <trkpt lat="49.30462" lon="0.20091">
        <ele>48.68</ele>
        <time>2021-01-30T13:33:12Z</time>
      </trkpt>
      <trkpt lat="49.30456" lon="0.20095">
        <ele>48.2</ele>
        <time>2021-01-30T13:33:29Z</time>
      </trkpt>
      <trkpt lat="49.30453" lon="0.20091">
        <ele>48.2</ele>
        <time>2021-01-30T13:33:56Z</time>
      </trkpt>
      <trkpt lat="49.30455" lon="0.20095">
        <ele>48.2</ele>
        <time>2021-01-30T13:34:15Z</time>
      </trkpt>
      <trkpt lat="49.30454" lon="0.20098">
        <ele>48.68</ele>
        <time>2021-01-30T13:34:36Z</time>
      </trkpt>
      <trkpt lat="49.30453" lon="0.20097">
        <ele>48.68</ele>
        <time>2021-01-30T13:34:58Z</time>
      </trkpt>
      <trkpt lat="49.30453" lon="0.20095">
        <ele>49.16</ele>
        <time>2021-01-30T13:35:14Z</time>
      </trkpt>
      <trkpt lat="49.30454" lon="0.20092">
        <ele>49.16</ele>
        <time>2021-01-30T13:35:33Z</time>
      </trkpt>
      <trkpt lat="49.30453" lon="0.2009">
        <ele>50.13</ele>
        <time>2021-01-30T13:35:52Z</time>
      </trkpt>
      <trkpt lat="49.30443" lon="0.20083">
        <ele>47.72</ele>
        <time>2021-01-30T13:36:14Z</time>
      </trkpt>
      <trkpt lat="49.30424" lon="0.20075">
        <ele>46.76</ele>
        <time>2021-01-30T13:36:35Z</time>
      </trkpt>
      <trkpt lat="49.30399" lon="0.20069">
        <ele>43.4</ele>
        <time>2021-01-30T13:37:01Z</time>
      </trkpt>
      <trkpt lat="49.30372" lon="0.20057">
        <ele>41.95</ele>
        <time>2021-01-30T13:37:27Z</time>
      </trkpt>
      <trkpt lat="49.30335" lon="0.2004">
        <ele>40.99</ele>
        <time>2021-01-30T13:37:52Z</time>
      </trkpt>
      <trkpt lat="49.30327" lon="0.20058">
        <ele>40.99</ele>
        <time>2021-01-30T13:38:15Z</time>
      </trkpt>
      <trkpt lat="49.30318" lon="0.20093">
        <ele>40.51</ele>
        <time>2021-01-30T13:38:36Z</time>
      </trkpt>
      <trkpt lat="49.30295" lon="0.20126">
        <ele>40.03</ele>
        <time>2021-01-30T13:38:57Z</time>
      </trkpt>
      <trkpt lat="49.30269" lon="0.20139">
        <ele>39.55</ele>
        <time>2021-01-30T13:39:20Z</time>
      </trkpt>
      <trkpt lat="49.30264" lon="0.20144">
        <ele>40.99</ele>
        <time>2021-01-30T13:39:25Z</time>
      </trkpt>
      <trkpt lat="49.3024" lon="0.20174">
        <ele>41.47</ele>
        <time>2021-01-30T13:39:50Z</time>
      </trkpt>
      <trkpt lat="49.30217" lon="0.20202">
        <ele>41.47</ele>
        <time>2021-01-30T13:40:13Z</time>
      </trkpt>
      <trkpt lat="49.30198" lon="0.20226">
        <ele>40.03</ele>
        <time>2021-01-30T13:40:38Z</time>
      </trkpt>
      <trkpt lat="49.30192" lon="0.20246">
        <ele>39.55</ele>
        <time>2021-01-30T13:40:55Z</time>
      </trkpt>
      <trkpt lat="49.3019" lon="0.20253">
        <ele>40.03</ele>
        <time>2021-01-30T13:41:18Z</time>
      </trkpt>
      <trkpt lat="49.30189" lon="0.20253">
        <ele>40.51</ele>
        <time>2021-01-30T13:41:41Z</time>
      </trkpt>
      <trkpt lat="49.30187" lon="0.20264">
        <ele>39.55</ele>
        <time>2021-01-30T13:42:00Z</time>
      </trkpt>
      <trkpt lat="49.30194" lon="0.20297">
        <ele>40.99</ele>
        <time>2021-01-30T13:42:24Z</time>
      </trkpt>
      <trkpt lat="49.30204" lon="0.20338">
        <ele>41.95</ele>
        <time>2021-01-30T13:42:49Z</time>
      </trkpt>
      <trkpt lat="49.30216" lon="0.20393">
        <ele>42.92</ele>
        <time>2021-01-30T13:43:19Z</time>
      </trkpt>
      <trkpt lat="49.30226" lon="0.2044">
        <ele>44.36</ele>
        <time>2021-01-30T13:43:44Z</time>
      </trkpt>
      <trkpt lat="49.30239" lon="0.20476">
        <ele>45.32</ele>
        <time>2021-01-30T13:44:09Z</time>
      </trkpt>
      <trkpt lat="49.30238" lon="0.20509">
        <ele>46.28</ele>
        <time>2021-01-30T13:44:23Z</time>
      </trkpt>
      <trkpt lat="49.30241" lon="0.20544">
        <ele>46.76</ele>
        <time>2021-01-30T13:44:45Z</time>
      </trkpt>
      <trkpt lat="49.30245" lon="0.20583">
        <ele>47.72</ele>
        <time>2021-01-30T13:45:08Z</time>
      </trkpt>
      <trkpt lat="49.30241" lon="0.20624">
        <ele>47.24</ele>
        <time>2021-01-30T13:45:31Z</time>
      </trkpt>
      <trkpt lat="49.30238" lon="0.2066">
        <ele>47.24</ele>
        <time>2021-01-30T13:45:54Z</time>
      </trkpt>
      <trkpt lat="49.30251" lon="0.20689">
        <ele>49.65</ele>
        <time>2021-01-30T13:46:16Z</time>
      </trkpt>
      <trkpt lat="49.30277" lon="0.20711">
        <ele>52.05</ele>
        <time>2021-01-30T13:46:41Z</time>
      </trkpt>
      <trkpt lat="49.30297" lon="0.20729">
        <ele>54.93</ele>
        <time>2021-01-30T13:47:06Z</time>
      </trkpt>
      <trkpt lat="49.30317" lon="0.20746">
        <ele>57.34</ele>
        <time>2021-01-30T13:47:27Z</time>
      </trkpt>
      <trkpt lat="49.30339" lon="0.20771">
        <ele>59.26</ele>
        <time>2021-01-30T13:47:51Z</time>
      </trkpt>
      <trkpt lat="49.30358" lon="0.2079">
        <ele>62.14</ele>
        <time>2021-01-30T13:48:15Z</time>
      </trkpt>
      <trkpt lat="49.30375" lon="0.20812">
        <ele>64.55</ele>
        <time>2021-01-30T13:48:39Z</time>
      </trkpt>
      <trkpt lat="49.30391" lon="0.20833">
        <ele>66.47</ele>
        <time>2021-01-30T13:49:05Z</time>
      </trkpt>
      <trkpt lat="49.30405" lon="0.20851">
        <ele>68.39</ele>
        <time>2021-01-30T13:49:27Z</time>
      </trkpt>
      <trkpt lat="49.30419" lon="0.20872">
        <ele>71.27</ele>
        <time>2021-01-30T13:49:50Z</time>
      </trkpt>
      <trkpt lat="49.30429" lon="0.20919">
        <ele>74.16</ele>
        <time>2021-01-30T13:50:17Z</time>
      </trkpt>
      <trkpt lat="49.30433" lon="0.20954">
        <ele>76.08</ele>
        <time>2021-01-30T13:50:39Z</time>
      </trkpt>
      <trkpt lat="49.30441" lon="0.20993">
        <ele>78.48</ele>
        <time>2021-01-30T13:51:04Z</time>
      </trkpt>
      <trkpt lat="49.30456" lon="0.21029">
        <ele>79.45</ele>
        <time>2021-01-30T13:51:28Z</time>
      </trkpt>
      <trkpt lat="49.30455" lon="0.21059">
        <ele>79.93</ele>
        <time>2021-01-30T13:51:50Z</time>
      </trkpt>
      <trkpt lat="49.30464" lon="0.21092">
        <ele>79.45</ele>
        <time>2021-01-30T13:52:14Z</time>
      </trkpt>
      <trkpt lat="49.30477" lon="0.21148">
        <ele>80.89</ele>
        <time>2021-01-30T13:52:42Z</time>
      </trkpt>
      <trkpt lat="49.30482" lon="0.21169">
        <ele>81.37</ele>
        <time>2021-01-30T13:53:02Z</time>
      </trkpt>
      <trkpt lat="49.30494" lon="0.21193">
        <ele>82.33</ele>
        <time>2021-01-30T13:53:21Z</time>
      </trkpt>
      <trkpt lat="49.305" lon="0.21203">
        <ele>83.29</ele>
        <time>2021-01-30T13:53:31Z</time>
      </trkpt>
      <trkpt lat="49.30501" lon="0.21207">
        <ele>87.14</ele>
        <time>2021-01-30T13:53:36Z</time>
      </trkpt>
      <trkpt lat="49.30501" lon="0.21208">
        <ele>83.77</ele>
        <time>2021-01-30T13:53:37Z</time>
      </trkpt>
      <trkpt lat="49.30502" lon="0.21209">
        <ele>82.81</ele>
        <time>2021-01-30T13:53:39Z</time>
      </trkpt>
      <trkpt lat="49.30503" lon="0.21211">
        <ele>84.25</ele>
        <time>2021-01-30T13:53:41Z</time>
      </trkpt>
      <trkpt lat="49.3051" lon="0.21251">
        <ele>84.73</ele>
        <time>2021-01-30T13:54:05Z</time>
      </trkpt>
      <trkpt lat="49.30524" lon="0.21297">
        <ele>85.21</ele>
        <time>2021-01-30T13:54:28Z</time>
      </trkpt>
      <trkpt lat="49.30538" lon="0.2129">
        <ele>85.69</ele>
        <time>2021-01-30T13:54:45Z</time>
      </trkpt>
      <trkpt lat="49.30536" lon="0.21264">
        <ele>86.66</ele>
        <time>2021-01-30T13:55:11Z</time>
      </trkpt>
      <trkpt lat="49.30535" lon="0.21238">
        <ele>88.1</ele>
        <time>2021-01-30T13:55:31Z</time>
      </trkpt>
      <trkpt lat="49.30535" lon="0.21206">
        <ele>89.06</ele>
        <time>2021-01-30T13:55:53Z</time>
      </trkpt>
      <trkpt lat="49.30535" lon="0.21171">
        <ele>89.54</ele>
        <time>2021-01-30T13:56:13Z</time>
      </trkpt>
      <trkpt lat="49.30538" lon="0.2112">
        <ele>90.5</ele>
        <time>2021-01-30T13:56:37Z</time>
      </trkpt>
      <trkpt lat="49.30547" lon="0.21081">
        <ele>91.94</ele>
        <time>2021-01-30T13:57:01Z</time>
      </trkpt>
      <trkpt lat="49.30553" lon="0.21044">
        <ele>92.9</ele>
        <time>2021-01-30T13:57:23Z</time>
      </trkpt>
      <trkpt lat="49.30563" lon="0.20992">
        <ele>92.9</ele>
        <time>2021-01-30T13:57:48Z</time>
      </trkpt>
      <trkpt lat="49.30576" lon="0.2095">
        <ele>93.87</ele>
        <time>2021-01-30T13:58:13Z</time>
      </trkpt>
      <trkpt lat="49.30592" lon="0.20897">
        <ele>95.31</ele>
        <time>2021-01-30T13:58:41Z</time>
      </trkpt>
      <trkpt lat="49.30609" lon="0.20868">
        <ele>96.75</ele>
        <time>2021-01-30T13:59:04Z</time>
      </trkpt>
      <trkpt lat="49.30625" lon="0.20833">
        <ele>96.75</ele>
        <time>2021-01-30T13:59:29Z</time>
      </trkpt>
      <trkpt lat="49.30648" lon="0.20797">
        <ele>98.19</ele>
        <time>2021-01-30T13:59:55Z</time>
      </trkpt>
      <trkpt lat="49.30672" lon="0.20772">
        <ele>99.15</ele>
        <time>2021-01-30T14:00:20Z</time>
      </trkpt>
      <trkpt lat="49.30694" lon="0.2075">
        <ele>99.63</ele>
        <time>2021-01-30T14:00:42Z</time>
      </trkpt>
      <trkpt lat="49.3072" lon="0.20727">
        <ele>101.08</ele>
        <time>2021-01-30T14:01:06Z</time>
      </trkpt>
      <trkpt lat="49.30739" lon="0.2071">
        <ele>102.52</ele>
        <time>2021-01-30T14:01:25Z</time>
      </trkpt>
      <trkpt lat="49.3076" lon="0.20691">
        <ele>104.44</ele>
        <time>2021-01-30T14:01:50Z</time>
      </trkpt>
      <trkpt lat="49.30782" lon="0.20676">
        <ele>106.36</ele>
        <time>2021-01-30T14:02:14Z</time>
      </trkpt>
      <trkpt lat="49.30803" lon="0.20648">
        <ele>108.77</ele>
        <time>2021-01-30T14:02:39Z</time>
      </trkpt>
      <trkpt lat="49.30817" lon="0.2061">
        <ele>111.17</ele>
        <time>2021-01-30T14:03:04Z</time>
      </trkpt>
      <trkpt lat="49.3083" lon="0.20566">
        <ele>113.09</ele>
        <time>2021-01-30T14:03:28Z</time>
      </trkpt>
      <trkpt lat="49.30841" lon="0.20539">
        <ele>114.05</ele>
        <time>2021-01-30T14:03:49Z</time>
      </trkpt>
      <trkpt lat="49.30857" lon="0.20505">
        <ele>116.46</ele>
        <time>2021-01-30T14:04:17Z</time>
      </trkpt>
      <trkpt lat="49.30871" lon="0.20469">
        <ele>118.38</ele>
        <time>2021-01-30T14:04:40Z</time>
      </trkpt>
      <trkpt lat="49.30887" lon="0.20432">
        <ele>119.82</ele>
        <time>2021-01-30T14:05:04Z</time>
      </trkpt>
      <trkpt lat="49.30899" lon="0.20389">
        <ele>121.74</ele>
        <time>2021-01-30T14:05:27Z</time>
      </trkpt>
      <trkpt lat="49.30923" lon="0.20359">
        <ele>123.19</ele>
        <time>2021-01-30T14:05:49Z</time>
      </trkpt>
      <trkpt lat="49.30937" lon="0.20328">
        <ele>124.15</ele>
        <time>2021-01-30T14:06:13Z</time>
      </trkpt>
      <trkpt lat="49.30955" lon="0.20295">
        <ele>125.11</ele>
        <time>2021-01-30T14:06:38Z</time>
      </trkpt>
      <trkpt lat="49.30964" lon="0.20256">
        <ele>125.11</ele>
        <time>2021-01-30T14:06:57Z</time>
      </trkpt>
      <trkpt lat="49.30978" lon="0.20218">
        <ele>125.11</ele>
        <time>2021-01-30T14:07:21Z</time>
      </trkpt>
      <trkpt lat="49.30986" lon="0.2018">
        <ele>125.59</ele>
        <time>2021-01-30T14:07:46Z</time>
      </trkpt>
      <trkpt lat="49.30983" lon="0.20176">
        <ele>126.07</ele>
        <time>2021-01-30T14:07:52Z</time>
      </trkpt>
      <trkpt lat="49.31002" lon="0.20201">
        <ele>126.55</ele>
        <time>2021-01-30T14:08:14Z</time>
      </trkpt>
      <trkpt lat="49.31029" lon="0.20205">
        <ele>127.03</ele>
        <time>2021-01-30T14:08:34Z</time>
      </trkpt>
      <trkpt lat="49.31057" lon="0.20204">
        <ele>127.03</ele>
        <time>2021-01-30T14:08:56Z</time>
      </trkpt>
      <trkpt lat="49.31068" lon="0.20192">
        <ele>126.07</ele>
        <time>2021-01-30T14:09:11Z</time>
      </trkpt>
      <trkpt lat="49.31094" lon="0.20184">
        <ele>124.63</ele>
        <time>2021-01-30T14:09:33Z</time>
      </trkpt>
      <trkpt lat="49.31108" lon="0.20216">
        <ele>122.71</ele>
        <time>2021-01-30T14:09:55Z</time>
      </trkpt>
      <trkpt lat="49.31107" lon="0.2025">
        <ele>121.26</ele>
        <time>2021-01-30T14:10:18Z</time>
      </trkpt>
      <trkpt lat="49.31112" lon="0.20299">
        <ele>118.38</ele>
        <time>2021-01-30T14:10:44Z</time>
      </trkpt>
      <trkpt lat="49.31127" lon="0.20344">
        <ele>116.94</ele>
        <time>2021-01-30T14:11:08Z</time>
      </trkpt>
      <trkpt lat="49.31138" lon="0.20383">
        <ele>115.01</ele>
        <time>2021-01-30T14:11:32Z</time>
      </trkpt>
      <trkpt lat="49.31156" lon="0.20421">
        <ele>113.57</ele>
        <time>2021-01-30T14:11:58Z</time>
      </trkpt>
      <trkpt lat="49.31152" lon="0.20451">
        <ele>114.53</ele>
        <time>2021-01-30T14:12:14Z</time>
      </trkpt>
      <trkpt lat="49.31148" lon="0.20506">
        <ele>116.46</ele>
        <time>2021-01-30T14:12:42Z</time>
      </trkpt>
      <trkpt lat="49.31139" lon="0.20537">
        <ele>117.9</ele>
        <time>2021-01-30T14:13:06Z</time>
      </trkpt>
      <trkpt lat="49.31135" lon="0.20583">
        <ele>118.86</ele>
        <time>2021-01-30T14:13:30Z</time>
      </trkpt>
      <trkpt lat="49.31132" lon="0.20631">
        <ele>122.22</ele>
        <time>2021-01-30T14:13:57Z</time>
      </trkpt>
      <trkpt lat="49.3113" lon="0.20662">
        <ele>123.67</ele>
        <time>2021-01-30T14:14:21Z</time>
      </trkpt>
      <trkpt lat="49.31133" lon="0.20703">
        <ele>124.63</ele>
        <time>2021-01-30T14:14:45Z</time>
      </trkpt>
      <trkpt lat="49.31133" lon="0.20738">
        <ele>124.63</ele>
        <time>2021-01-30T14:15:06Z</time>
      </trkpt>
      <trkpt lat="49.31136" lon="0.20772">
        <ele>126.07</ele>
        <time>2021-01-30T14:15:30Z</time>
      </trkpt>
      <trkpt lat="49.31134" lon="0.20817">
        <ele>126.55</ele>
        <time>2021-01-30T14:15:57Z</time>
      </trkpt>
      <trkpt lat="49.31134" lon="0.20853">
        <ele>126.55</ele>
        <time>2021-01-30T14:16:19Z</time>
      </trkpt>
      <trkpt lat="49.31131" lon="0.20917">
        <ele>126.55</ele>
        <time>2021-01-30T14:16:43Z</time>
      </trkpt>
      <trkpt lat="49.31125" lon="0.20955">
        <ele>127.03</ele>
        <time>2021-01-30T14:17:07Z</time>
      </trkpt>
      <trkpt lat="49.31124" lon="0.20986">
        <ele>127.99</ele>
        <time>2021-01-30T14:17:29Z</time>
      </trkpt>
      <trkpt lat="49.31125" lon="0.21021">
        <ele>127.99</ele>
        <time>2021-01-30T14:17:50Z</time>
      </trkpt>
      <trkpt lat="49.31121" lon="0.21063">
        <ele>126.55</ele>
        <time>2021-01-30T14:18:11Z</time>
      </trkpt>
      <trkpt lat="49.31115" lon="0.21112">
        <ele>126.07</ele>
        <time>2021-01-30T14:18:37Z</time>
      </trkpt>
      <trkpt lat="49.31116" lon="0.21152">
        <ele>125.11</ele>
        <time>2021-01-30T14:18:59Z</time>
      </trkpt>
      <trkpt lat="49.3112" lon="0.21191">
        <ele>124.63</ele>
        <time>2021-01-30T14:19:23Z</time>
      </trkpt>
      <trkpt lat="49.31119" lon="0.21242">
        <ele>124.63</ele>
        <time>2021-01-30T14:19:50Z</time>
      </trkpt>
      <trkpt lat="49.31118" lon="0.21295">
        <ele>125.59</ele>
        <time>2021-01-30T14:20:15Z</time>
      </trkpt>
      <trkpt lat="49.31118" lon="0.21347">
        <ele>126.07</ele>
        <time>2021-01-30T14:20:39Z</time>
      </trkpt>
      <trkpt lat="49.31118" lon="0.21383">
        <ele>127.03</ele>
        <time>2021-01-30T14:21:03Z</time>
      </trkpt>
      <trkpt lat="49.31114" lon="0.21393">
        <ele>127.03</ele>
        <time>2021-01-30T14:21:23Z</time>
      </trkpt>
      <trkpt lat="49.31109" lon="0.21435">
        <ele>127.03</ele>
        <time>2021-01-30T14:21:51Z</time>
      </trkpt>
      <trkpt lat="49.31106" lon="0.2149">
        <ele>127.03</ele>
        <time>2021-01-30T14:22:15Z</time>
      </trkpt>
      <trkpt lat="49.31103" lon="0.21527">
        <ele>126.55</ele>
        <time>2021-01-30T14:22:38Z</time>
      </trkpt>
      <trkpt lat="49.31101" lon="0.21552">
        <ele>125.59</ele>
        <time>2021-01-30T14:22:51Z</time>
      </trkpt>
      <trkpt lat="49.311" lon="0.21604">
        <ele>125.11</ele>
        <time>2021-01-30T14:23:15Z</time>
      </trkpt>
      <trkpt lat="49.31101" lon="0.21642">
        <ele>124.15</ele>
        <time>2021-01-30T14:23:37Z</time>
      </trkpt>
      <trkpt lat="49.31103" lon="0.21676">
        <ele>123.67</ele>
        <time>2021-01-30T14:24:01Z</time>
      </trkpt>
      <trkpt lat="49.31098" lon="0.2173">
        <ele>123.19</ele>
        <time>2021-01-30T14:24:27Z</time>
      </trkpt>
      <trkpt lat="49.31111" lon="0.21772">
        <ele>122.22</ele>
        <time>2021-01-30T14:24:54Z</time>
      </trkpt>
      <trkpt lat="49.31109" lon="0.21809">
        <ele>121.26</ele>
        <time>2021-01-30T14:25:15Z</time>
      </trkpt>
      <trkpt lat="49.31112" lon="0.21847">
        <ele>120.3</ele>
        <time>2021-01-30T14:25:35Z</time>
      </trkpt>
      <trkpt lat="49.3111" lon="0.21901">
        <ele>119.82</ele>
        <time>2021-01-30T14:26:00Z</time>
      </trkpt>
      <trkpt lat="49.31112" lon="0.21948">
        <ele>119.34</ele>
        <time>2021-01-30T14:26:23Z</time>
      </trkpt>
      <trkpt lat="49.31111" lon="0.21976">
        <ele>118.86</ele>
        <time>2021-01-30T14:26:46Z</time>
      </trkpt>
      <trkpt lat="49.31106" lon="0.22015">
        <ele>117.9</ele>
        <time>2021-01-30T14:27:10Z</time>
      </trkpt>
      <trkpt lat="49.31101" lon="0.22059">
        <ele>115.98</ele>
        <time>2021-01-30T14:27:30Z</time>
      </trkpt>
      <trkpt lat="49.31096" lon="0.2209">
        <ele>115.5</ele>
        <time>2021-01-30T14:27:51Z</time>
      </trkpt>
      <trkpt lat="49.31088" lon="0.22125">
        <ele>114.05</ele>
        <time>2021-01-30T14:28:14Z</time>
      </trkpt>
      <trkpt lat="49.31079" lon="0.22169">
        <ele>113.57</ele>
        <time>2021-01-30T14:28:38Z</time>
      </trkpt>
      <trkpt lat="49.31083" lon="0.2222">
        <ele>112.61</ele>
        <time>2021-01-30T14:29:05Z</time>
      </trkpt>
      <trkpt lat="49.31087" lon="0.22264">
        <ele>112.13</ele>
        <time>2021-01-30T14:29:28Z</time>
      </trkpt>
      <trkpt lat="49.31092" lon="0.22306">
        <ele>112.13</ele>
        <time>2021-01-30T14:29:51Z</time>
      </trkpt>
      <trkpt lat="49.31103" lon="0.22334">
        <ele>111.17</ele>
        <time>2021-01-30T14:30:14Z</time>
      </trkpt>
      <trkpt lat="49.31115" lon="0.22375">
        <ele>111.17</ele>
        <time>2021-01-30T14:30:37Z</time>
      </trkpt>
      <trkpt lat="49.31117" lon="0.22389">
        <ele>111.17</ele>
        <time>2021-01-30T14:30:54Z</time>
      </trkpt>
      <trkpt lat="49.31104" lon="0.22393">
        <ele>112.61</ele>
        <time>2021-01-30T14:31:16Z</time>
      </trkpt>
      <trkpt lat="49.31084" lon="0.22385">
        <ele>113.09</ele>
        <time>2021-01-30T14:31:37Z</time>
      </trkpt>
      <trkpt lat="49.31057" lon="0.22369">
        <ele>112.61</ele>
        <time>2021-01-30T14:31:59Z</time>
      </trkpt>
      <trkpt lat="49.31036" lon="0.22353">
        <ele>112.61</ele>
        <time>2021-01-30T14:32:21Z</time>
      </trkpt>
      <trkpt lat="49.31018" lon="0.22328">
        <ele>113.57</ele>
        <time>2021-01-30T14:32:42Z</time>
      </trkpt>
      <trkpt lat="49.30997" lon="0.22295">
        <ele>114.53</ele>
        <time>2021-01-30T14:33:07Z</time>
      </trkpt>
      <trkpt lat="49.30981" lon="0.22268">
        <ele>115.98</ele>
        <time>2021-01-30T14:33:27Z</time>
      </trkpt>
      <trkpt lat="49.30954" lon="0.22233">
        <ele>116.94</ele>
        <time>2021-01-30T14:33:49Z</time>
      </trkpt>
      <trkpt lat="49.30935" lon="0.22218">
        <ele>116.94</ele>
        <time>2021-01-30T14:34:10Z</time>
      </trkpt>
      <trkpt lat="49.30911" lon="0.2221">
        <ele>117.42</ele>
        <time>2021-01-30T14:34:31Z</time>
      </trkpt>
      <trkpt lat="49.30889" lon="0.22216">
        <ele>117.9</ele>
        <time>2021-01-30T14:34:52Z</time>
      </trkpt>
      <trkpt lat="49.30861" lon="0.22228">
        <ele>117.9</ele>
        <time>2021-01-30T14:35:15Z</time>
      </trkpt>
      <trkpt lat="49.30844" lon="0.22246">
        <ele>117.9</ele>
        <time>2021-01-30T14:35:38Z</time>
      </trkpt>
      <trkpt lat="49.30823" lon="0.22256">
        <ele>117.42</ele>
        <time>2021-01-30T14:36:02Z</time>
      </trkpt>
      <trkpt lat="49.30793" lon="0.22262">
        <ele>117.42</ele>
        <time>2021-01-30T14:36:25Z</time>
      </trkpt>
      <trkpt lat="49.30782" lon="0.22271">
        <ele>115.98</ele>
        <time>2021-01-30T14:36:37Z</time>
      </trkpt>
      <trkpt lat="49.30758" lon="0.22283">
        <ele>115.5</ele>
        <time>2021-01-30T14:36:54Z</time>
      </trkpt>
      <trkpt lat="49.30737" lon="0.22282">
        <ele>113.57</ele>
        <time>2021-01-30T14:37:18Z</time>
      </trkpt>
      <trkpt lat="49.30725" lon="0.22276">
        <ele>110.69</ele>
        <time>2021-01-30T14:37:35Z</time>
      </trkpt>
      <trkpt lat="49.30709" lon="0.22256">
        <ele>107.32</ele>
        <time>2021-01-30T14:37:55Z</time>
      </trkpt>
      <trkpt lat="49.30698" lon="0.22233">
        <ele>103.96</ele>
        <time>2021-01-30T14:38:11Z</time>
      </trkpt>
      <trkpt lat="49.30677" lon="0.22196">
        <ele>101.08</ele>
        <time>2021-01-30T14:38:36Z</time>
      </trkpt>
      <trkpt lat="49.30663" lon="0.22168">
        <ele>97.71</ele>
        <time>2021-01-30T14:38:59Z</time>
      </trkpt>
      <trkpt lat="49.3064" lon="0.22145">
        <ele>95.79</ele>
        <time>2021-01-30T14:39:21Z</time>
      </trkpt>
      <trkpt lat="49.30628" lon="0.22171">
        <ele>94.35</ele>
        <time>2021-01-30T14:39:43Z</time>
      </trkpt>
      <trkpt lat="49.30626" lon="0.22209">
        <ele>93.87</ele>
        <time>2021-01-30T14:40:05Z</time>
      </trkpt>
      <trkpt lat="49.30629" lon="0.22243">
        <ele>93.87</ele>
        <time>2021-01-30T14:40:26Z</time>
      </trkpt>
      <trkpt lat="49.30636" lon="0.22268">
        <ele>93.39</ele>
        <time>2021-01-30T14:40:44Z</time>
      </trkpt>
      <trkpt lat="49.30646" lon="0.22314">
        <ele>93.39</ele>
        <time>2021-01-30T14:41:10Z</time>
      </trkpt>
      <trkpt lat="49.30648" lon="0.2236">
        <ele>92.42</ele>
        <time>2021-01-30T14:41:34Z</time>
      </trkpt>
      <trkpt lat="49.3065" lon="0.22406">
        <ele>92.42</ele>
        <time>2021-01-30T14:41:58Z</time>
      </trkpt>
      <trkpt lat="49.30659" lon="0.22445">
        <ele>91.94</ele>
        <time>2021-01-30T14:42:17Z</time>
      </trkpt>
      <trkpt lat="49.30668" lon="0.22488">
        <ele>91.46</ele>
        <time>2021-01-30T14:42:40Z</time>
      </trkpt>
      <trkpt lat="49.30678" lon="0.22524">
        <ele>92.9</ele>
        <time>2021-01-30T14:43:02Z</time>
      </trkpt>
      <trkpt lat="49.30682" lon="0.22571">
        <ele>92.9</ele>
        <time>2021-01-30T14:43:26Z</time>
      </trkpt>
      <trkpt lat="49.30681" lon="0.22619">
        <ele>93.39</ele>
        <time>2021-01-30T14:43:52Z</time>
      </trkpt>
      <trkpt lat="49.30689" lon="0.2267">
        <ele>92.9</ele>
        <time>2021-01-30T14:44:18Z</time>
      </trkpt>
      <trkpt lat="49.30696" lon="0.22713">
        <ele>93.87</ele>
        <time>2021-01-30T14:44:39Z</time>
      </trkpt>
      <trkpt lat="49.30707" lon="0.22758">
        <ele>94.35</ele>
        <time>2021-01-30T14:45:04Z</time>
      </trkpt>
      <trkpt lat="49.3072" lon="0.22798">
        <ele>95.31</ele>
        <time>2021-01-30T14:45:27Z</time>
      </trkpt>
      <trkpt lat="49.30731" lon="0.22839">
        <ele>95.79</ele>
        <time>2021-01-30T14:45:52Z</time>
      </trkpt>
      <trkpt lat="49.30744" lon="0.2288">
        <ele>95.79</ele>
        <time>2021-01-30T14:46:13Z</time>
      </trkpt>
      <trkpt lat="49.30749" lon="0.22915">
        <ele>94.83</ele>
        <time>2021-01-30T14:46:33Z</time>
      </trkpt>
      <trkpt lat="49.30754" lon="0.22954">
        <ele>94.35</ele>
        <time>2021-01-30T14:46:54Z</time>
      </trkpt>
      <trkpt lat="49.30757" lon="0.22996">
        <ele>93.39</ele>
        <time>2021-01-30T14:47:16Z</time>
      </trkpt>
      <trkpt lat="49.30749" lon="0.23034">
        <ele>91.94</ele>
        <time>2021-01-30T14:47:37Z</time>
      </trkpt>
      <trkpt lat="49.30741" lon="0.23068">
        <ele>90.5</ele>
        <time>2021-01-30T14:47:58Z</time>
      </trkpt>
      <trkpt lat="49.30741" lon="0.23112">
        <ele>90.02</ele>
        <time>2021-01-30T14:48:23Z</time>
      </trkpt>
      <trkpt lat="49.30749" lon="0.23157">
        <ele>88.58</ele>
        <time>2021-01-30T14:48:47Z</time>
      </trkpt>
      <trkpt lat="49.30753" lon="0.23209">
        <ele>87.14</ele>
        <time>2021-01-30T14:49:12Z</time>
      </trkpt>
      <trkpt lat="49.30753" lon="0.23234">
        <ele>86.66</ele>
        <time>2021-01-30T14:49:34Z</time>
      </trkpt>
      <trkpt lat="49.30755" lon="0.2327">
        <ele>84.73</ele>
        <time>2021-01-30T14:49:55Z</time>
      </trkpt>
      <trkpt lat="49.30753" lon="0.2331">
        <ele>83.29</ele>
        <time>2021-01-30T14:50:19Z</time>
      </trkpt>
      <trkpt lat="49.30759" lon="0.23355">
        <ele>82.33</ele>
        <time>2021-01-30T14:50:40Z</time>
      </trkpt>
      <trkpt lat="49.30758" lon="0.23382">
        <ele>80.89</ele>
        <time>2021-01-30T14:51:00Z</time>
      </trkpt>
      <trkpt lat="49.30768" lon="0.23424">
        <ele>80.89</ele>
        <time>2021-01-30T14:51:24Z</time>
      </trkpt>
      <trkpt lat="49.30782" lon="0.23463">
        <ele>79.45</ele>
        <time>2021-01-30T14:51:48Z</time>
      </trkpt>
      <trkpt lat="49.3079" lon="0.23498">
        <ele>78</ele>
        <time>2021-01-30T14:52:10Z</time>
      </trkpt>
      <trkpt lat="49.30797" lon="0.2353">
        <ele>77.04</ele>
        <time>2021-01-30T14:52:29Z</time>
      </trkpt>
      <trkpt lat="49.30807" lon="0.23573">
        <ele>75.12</ele>
        <time>2021-01-30T14:52:55Z</time>
      </trkpt>
      <trkpt lat="49.30821" lon="0.23613">
        <ele>73.68</ele>
        <time>2021-01-30T14:53:17Z</time>
      </trkpt>
      <trkpt lat="49.3083" lon="0.23654">
        <ele>71.76</ele>
        <time>2021-01-30T14:53:40Z</time>
      </trkpt>
      <trkpt lat="49.30834" lon="0.2369">
        <ele>69.35</ele>
        <time>2021-01-30T14:53:59Z</time>
      </trkpt>
      <trkpt lat="49.30834" lon="0.23728">
        <ele>67.91</ele>
        <time>2021-01-30T14:54:21Z</time>
      </trkpt>
      <trkpt lat="49.3083" lon="0.23744">
        <ele>66.95</ele>
        <time>2021-01-30T14:54:39Z</time>
      </trkpt>
      <trkpt lat="49.3083" lon="0.23747">
        <ele>66.95</ele>
        <time>2021-01-30T14:54:40Z</time>
      </trkpt>
      <trkpt lat="49.30824" lon="0.23788">
        <ele>64.55</ele>
        <time>2021-01-30T14:55:05Z</time>
      </trkpt>
      <trkpt lat="49.30819" lon="0.23836">
        <ele>62.62</ele>
        <time>2021-01-30T14:55:29Z</time>
      </trkpt>
      <trkpt lat="49.30815" lon="0.2388">
        <ele>61.18</ele>
        <time>2021-01-30T14:55:52Z</time>
      </trkpt>
      <trkpt lat="49.30809" lon="0.23935">
        <ele>58.3</ele>
        <time>2021-01-30T14:56:21Z</time>
      </trkpt>
      <trkpt lat="49.30805" lon="0.23986">
        <ele>55.41</ele>
        <time>2021-01-30T14:56:47Z</time>
      </trkpt>
      <trkpt lat="49.30801" lon="0.24028">
        <ele>53.49</ele>
        <time>2021-01-30T14:57:11Z</time>
      </trkpt>
      <trkpt lat="49.3079" lon="0.2407">
        <ele>50.61</ele>
        <time>2021-01-30T14:57:36Z</time>
      </trkpt>
      <trkpt lat="49.3078" lon="0.24109">
        <ele>48.2</ele>
        <time>2021-01-30T14:58:00Z</time>
      </trkpt>
      <trkpt lat="49.30765" lon="0.2414">
        <ele>45.32</ele>
        <time>2021-01-30T14:58:22Z</time>
      </trkpt>
      <trkpt lat="49.30746" lon="0.24166">
        <ele>42.92</ele>
        <time>2021-01-30T14:58:44Z</time>
      </trkpt>
      <trkpt lat="49.30733" lon="0.24211">
        <ele>40.51</ele>
        <time>2021-01-30T14:59:09Z</time>
      </trkpt>
      <trkpt lat="49.30736" lon="0.24252">
        <ele>38.59</ele>
        <time>2021-01-30T14:59:33Z</time>
      </trkpt>
      <trkpt lat="49.30742" lon="0.24303">
        <ele>36.67</ele>
        <time>2021-01-30T14:59:59Z</time>
      </trkpt>
      <trkpt lat="49.30744" lon="0.24333">
        <ele>34.74</ele>
        <time>2021-01-30T15:00:18Z</time>
      </trkpt>
      <trkpt lat="49.3073" lon="0.24352">
        <ele>32.34</ele>
        <time>2021-01-30T15:00:40Z</time>
      </trkpt>
      <trkpt lat="49.30717" lon="0.24357">
        <ele>31.86</ele>
        <time>2021-01-30T15:01:03Z</time>
      </trkpt>
      <trkpt lat="49.30716" lon="0.24358">
        <ele>32.82</ele>
        <time>2021-01-30T15:01:05Z</time>
      </trkpt>
      <trkpt lat="49.30707" lon="0.24357">
        <ele>37.15</ele>
        <time>2021-01-30T15:01:25Z</time>
      </trkpt>
      <trkpt lat="49.30699" lon="0.24347">
        <ele>35.23</ele>
        <time>2021-01-30T15:01:52Z</time>
      </trkpt>
      <trkpt lat="49.30698" lon="0.24337">
        <ele>35.23</ele>
        <time>2021-01-30T15:02:15Z</time>
      </trkpt>
      <trkpt lat="49.30696" lon="0.24331">
        <ele>34.74</ele>
        <time>2021-01-30T15:02:41Z</time>
      </trkpt>
      <trkpt lat="49.30689" lon="0.24316">
        <ele>34.74</ele>
        <time>2021-01-30T15:03:02Z</time>
      </trkpt>
      <trkpt lat="49.30684" lon="0.24304">
        <ele>34.74</ele>
        <time>2021-01-30T15:03:21Z</time>
      </trkpt>
      <trkpt lat="49.30672" lon="0.24277">
        <ele>34.26</ele>
        <time>2021-01-30T15:03:44Z</time>
      </trkpt>
      <trkpt lat="49.30649" lon="0.24242">
        <ele>33.78</ele>
        <time>2021-01-30T15:04:05Z</time>
      </trkpt>
      <trkpt lat="49.30631" lon="0.24205">
        <ele>33.78</ele>
        <time>2021-01-30T15:04:30Z</time>
      </trkpt>
      <trkpt lat="49.30611" lon="0.24165">
        <ele>33.3</ele>
        <time>2021-01-30T15:04:54Z</time>
      </trkpt>
      <trkpt lat="49.30586" lon="0.24129">
        <ele>32.82</ele>
        <time>2021-01-30T15:05:17Z</time>
      </trkpt>
      <trkpt lat="49.30554" lon="0.24093">
        <ele>32.82</ele>
        <time>2021-01-30T15:05:43Z</time>
      </trkpt>
      <trkpt lat="49.30538" lon="0.24063">
        <ele>32.82</ele>
        <time>2021-01-30T15:06:06Z</time>
      </trkpt>
      <trkpt lat="49.30516" lon="0.24025">
        <ele>32.82</ele>
        <time>2021-01-30T15:06:32Z</time>
      </trkpt>
      <trkpt lat="49.30497" lon="0.23993">
        <ele>32.82</ele>
        <time>2021-01-30T15:06:55Z</time>
      </trkpt>
      <trkpt lat="49.30485" lon="0.23963">
        <ele>31.86</ele>
        <time>2021-01-30T15:07:18Z</time>
      </trkpt>
      <trkpt lat="49.3047" lon="0.2393">
        <ele>31.86</ele>
        <time>2021-01-30T15:07:40Z</time>
      </trkpt>
      <trkpt lat="49.30452" lon="0.23905">
        <ele>31.86</ele>
        <time>2021-01-30T15:08:03Z</time>
      </trkpt>
      <trkpt lat="49.30436" lon="0.23868">
        <ele>31.38</ele>
        <time>2021-01-30T15:08:24Z</time>
      </trkpt>
      <trkpt lat="49.30422" lon="0.23825">
        <ele>31.38</ele>
        <time>2021-01-30T15:08:50Z</time>
      </trkpt>
      <trkpt lat="49.30411" lon="0.23801">
        <ele>30.9</ele>
        <time>2021-01-30T15:09:13Z</time>
      </trkpt>
      <trkpt lat="49.30392" lon="0.23763">
        <ele>30.42</ele>
        <time>2021-01-30T15:09:37Z</time>
      </trkpt>
      <trkpt lat="49.30381" lon="0.23737">
        <ele>29.46</ele>
        <time>2021-01-30T15:09:58Z</time>
      </trkpt>
      <trkpt lat="49.30369" lon="0.23695">
        <ele>29.46</ele>
        <time>2021-01-30T15:10:22Z</time>
      </trkpt>
      <trkpt lat="49.30352" lon="0.2365">
        <ele>28.5</ele>
        <time>2021-01-30T15:10:44Z</time>
      </trkpt>
      <trkpt lat="49.30346" lon="0.23621">
        <ele>28.5</ele>
        <time>2021-01-30T15:11:06Z</time>
      </trkpt>
      <trkpt lat="49.30337" lon="0.23587">
        <ele>27.53</ele>
        <time>2021-01-30T15:11:26Z</time>
      </trkpt>
      <trkpt lat="49.30329" lon="0.23545">
        <ele>27.53</ele>
        <time>2021-01-30T15:11:49Z</time>
      </trkpt>
      <trkpt lat="49.30324" lon="0.23514">
        <ele>26.57</ele>
        <time>2021-01-30T15:12:11Z</time>
      </trkpt>
      <trkpt lat="49.30316" lon="0.23476">
        <ele>26.09</ele>
        <time>2021-01-30T15:12:31Z</time>
      </trkpt>
      <trkpt lat="49.30303" lon="0.23442">
        <ele>25.13</ele>
        <time>2021-01-30T15:12:55Z</time>
      </trkpt>
      <trkpt lat="49.30297" lon="0.2341">
        <ele>25.13</ele>
        <time>2021-01-30T15:13:14Z</time>
      </trkpt>
      <trkpt lat="49.30278" lon="0.23352">
        <ele>24.17</ele>
        <time>2021-01-30T15:13:34Z</time>
      </trkpt>
      <trkpt lat="49.30265" lon="0.23315">
        <ele>24.17</ele>
        <time>2021-01-30T15:13:54Z</time>
      </trkpt>
      <trkpt lat="49.30256" lon="0.23275">
        <ele>24.17</ele>
        <time>2021-01-30T15:14:17Z</time>
      </trkpt>
      <trkpt lat="49.30245" lon="0.23236">
        <ele>24.17</ele>
        <time>2021-01-30T15:14:40Z</time>
      </trkpt>
      <trkpt lat="49.30243" lon="0.23201">
        <ele>23.69</ele>
        <time>2021-01-30T15:15:03Z</time>
      </trkpt>
      <trkpt lat="49.30233" lon="0.23161">
        <ele>23.69</ele>
        <time>2021-01-30T15:15:27Z</time>
      </trkpt>
      <trkpt lat="49.30227" lon="0.23124">
        <ele>23.69</ele>
        <time>2021-01-30T15:15:50Z</time>
      </trkpt>
      <trkpt lat="49.30224" lon="0.23083">
        <ele>22.73</ele>
        <time>2021-01-30T15:16:13Z</time>
      </trkpt>
      <trkpt lat="49.30217" lon="0.2304">
        <ele>22.25</ele>
        <time>2021-01-30T15:16:38Z</time>
      </trkpt>
      <trkpt lat="49.30207" lon="0.22994">
        <ele>21.77</ele>
        <time>2021-01-30T15:17:02Z</time>
      </trkpt>
      <trkpt lat="49.30197" lon="0.22952">
        <ele>21.29</ele>
        <time>2021-01-30T15:17:27Z</time>
      </trkpt>
      <trkpt lat="49.3018" lon="0.22908">
        <ele>21.77</ele>
        <time>2021-01-30T15:17:48Z</time>
      </trkpt>
      <trkpt lat="49.30175" lon="0.22884">
        <ele>20.32</ele>
        <time>2021-01-30T15:18:09Z</time>
      </trkpt>
      <trkpt lat="49.30168" lon="0.22851">
        <ele>20.32</ele>
        <time>2021-01-30T15:18:29Z</time>
      </trkpt>
      <trkpt lat="49.30163" lon="0.22821">
        <ele>19.84</ele>
        <time>2021-01-30T15:18:50Z</time>
      </trkpt>
      <trkpt lat="49.3016" lon="0.22799">
        <ele>18.88</ele>
        <time>2021-01-30T15:19:11Z</time>
      </trkpt>
      <trkpt lat="49.30153" lon="0.22755">
        <ele>17.92</ele>
        <time>2021-01-30T15:19:34Z</time>
      </trkpt>
      <trkpt lat="49.30143" lon="0.22714">
        <ele>17.44</ele>
        <time>2021-01-30T15:19:58Z</time>
      </trkpt>
      <trkpt lat="49.30133" lon="0.22663">
        <ele>16.48</ele>
        <time>2021-01-30T15:20:23Z</time>
      </trkpt>
      <trkpt lat="49.30124" lon="0.22625">
        <ele>16</ele>
        <time>2021-01-30T15:20:49Z</time>
      </trkpt>
      <trkpt lat="49.30117" lon="0.2259">
        <ele>15.52</ele>
        <time>2021-01-30T15:21:11Z</time>
      </trkpt>
      <trkpt lat="49.30108" lon="0.22552">
        <ele>14.56</ele>
        <time>2021-01-30T15:21:32Z</time>
      </trkpt>
      <trkpt lat="49.30095" lon="0.2251">
        <ele>14.08</ele>
        <time>2021-01-30T15:21:54Z</time>
      </trkpt>
      <trkpt lat="49.30085" lon="0.22471">
        <ele>13.6</ele>
        <time>2021-01-30T15:22:15Z</time>
      </trkpt>
      <trkpt lat="49.30076" lon="0.22433">
        <ele>12.63</ele>
        <time>2021-01-30T15:22:37Z</time>
      </trkpt>
      <trkpt lat="49.30067" lon="0.22395">
        <ele>12.63</ele>
        <time>2021-01-30T15:22:57Z</time>
      </trkpt>
      <trkpt lat="49.30054" lon="0.22354">
        <ele>12.15</ele>
        <time>2021-01-30T15:23:18Z</time>
      </trkpt>
      <trkpt lat="49.30041" lon="0.22316">
        <ele>11.67</ele>
        <time>2021-01-30T15:23:34Z</time>
      </trkpt>
      <trkpt lat="49.30031" lon="0.2227">
        <ele>11.67</ele>
        <time>2021-01-30T15:23:58Z</time>
      </trkpt>
      <trkpt lat="49.3002" lon="0.22223">
        <ele>11.19</ele>
        <time>2021-01-30T15:24:25Z</time>
      </trkpt>
      <trkpt lat="49.3001" lon="0.2218">
        <ele>10.71</ele>
        <time>2021-01-30T15:24:49Z</time>
      </trkpt>
      <trkpt lat="49.30003" lon="0.22136">
        <ele>10.71</ele>
        <time>2021-01-30T15:25:14Z</time>
      </trkpt>
      <trkpt lat="49.29995" lon="0.22091">
        <ele>9.75</ele>
        <time>2021-01-30T15:25:38Z</time>
      </trkpt>
      <trkpt lat="49.29988" lon="0.22047">
        <ele>9.75</ele>
        <time>2021-01-30T15:26:02Z</time>
      </trkpt>
      <trkpt lat="49.29983" lon="0.22008">
        <ele>9.75</ele>
        <time>2021-01-30T15:26:25Z</time>
      </trkpt>
      <trkpt lat="49.29983" lon="0.21973">
        <ele>9.27</ele>
        <time>2021-01-30T15:26:48Z</time>
      </trkpt>
      <trkpt lat="49.29983" lon="0.21935">
        <ele>8.79</ele>
        <time>2021-01-30T15:27:13Z</time>
      </trkpt>
      <trkpt lat="49.29983" lon="0.21904">
        <ele>8.31</ele>
        <time>2021-01-30T15:27:32Z</time>
      </trkpt>
      <trkpt lat="49.2997" lon="0.21839">
        <ele>7.83</ele>
        <time>2021-01-30T15:27:55Z</time>
      </trkpt>
      <trkpt lat="49.29973" lon="0.21813">
        <ele>7.35</ele>
        <time>2021-01-30T15:28:18Z</time>
      </trkpt>
      <trkpt lat="49.29971" lon="0.21764">
        <ele>6.39</ele>
        <time>2021-01-30T15:28:43Z</time>
      </trkpt>
      <trkpt lat="49.2997" lon="0.21723">
        <ele>5.91</ele>
        <time>2021-01-30T15:29:08Z</time>
      </trkpt>
      <trkpt lat="49.29968" lon="0.21691">
        <ele>4.94</ele>
        <time>2021-01-30T15:29:29Z</time>
      </trkpt>
      <trkpt lat="49.29959" lon="0.21634">
        <ele>4.46</ele>
        <time>2021-01-30T15:29:52Z</time>
      </trkpt>
      <trkpt lat="49.29951" lon="0.21598">
        <ele>3.98</ele>
        <time>2021-01-30T15:30:13Z</time>
      </trkpt>
      <trkpt lat="49.29951" lon="0.21565">
        <ele>3.02</ele>
        <time>2021-01-30T15:30:34Z</time>
      </trkpt>
      <trkpt lat="49.29946" lon="0.21524">
        <ele>3.02</ele>
        <time>2021-01-30T15:30:53Z</time>
      </trkpt>
      <trkpt lat="49.2994" lon="0.2148">
        <ele>2.06</ele>
        <time>2021-01-30T15:31:16Z</time>
      </trkpt>
      <trkpt lat="49.2993" lon="0.21434">
        <ele>1.58</ele>
        <time>2021-01-30T15:31:35Z</time>
      </trkpt>
      <trkpt lat="49.29927" lon="0.214">
        <ele>1.1</ele>
        <time>2021-01-30T15:31:56Z</time>
      </trkpt>
      <trkpt lat="49.29923" lon="0.21354">
        <ele>1.1</ele>
        <time>2021-01-30T15:32:20Z</time>
      </trkpt>
      <trkpt lat="49.29919" lon="0.21311">
        <ele>0.62</ele>
        <time>2021-01-30T15:32:44Z</time>
      </trkpt>
      <trkpt lat="49.29915" lon="0.21267">
        <ele>0.14</ele>
        <time>2021-01-30T15:33:05Z</time>
      </trkpt>
      <trkpt lat="49.29907" lon="0.21248">
        <ele>0.14</ele>
        <time>2021-01-30T15:33:25Z</time>
      </trkpt>
      <trkpt lat="49.29901" lon="0.21246">
        <ele>0.62</ele>
        <time>2021-01-30T15:33:54Z</time>
      </trkpt>
      <trkpt lat="49.29901" lon="0.21238">
        <ele>2.06</ele>
        <time>2021-01-30T15:34:18Z</time>
      </trkpt>
      <trkpt lat="49.29896" lon="0.21242">
        <ele>1.1</ele>
        <time>2021-01-30T15:34:40Z</time>
      </trkpt>
      <trkpt lat="49.29895" lon="0.21254">
        <ele>1.58</ele>
        <time>2021-01-30T15:35:14Z</time>
      </trkpt>
      <trkpt lat="49.29899" lon="0.21248">
        <ele>2.06</ele>
        <time>2021-01-30T15:35:37Z</time>
      </trkpt>
      <trkpt lat="49.299" lon="0.2125">
        <ele>2.06</ele>
        <time>2021-01-30T15:35:59Z</time>
      </trkpt>
      <trkpt lat="49.29903" lon="0.21248">
        <ele>3.02</ele>
        <time>2021-01-30T15:36:27Z</time>
      </trkpt>
      <trkpt lat="49.29903" lon="0.21229">
        <ele>2.54</ele>
        <time>2021-01-30T15:36:46Z</time>
      </trkpt>
      <trkpt lat="49.29898" lon="0.21191">
        <ele>3.02</ele>
        <time>2021-01-30T15:37:11Z</time>
      </trkpt>
      <trkpt lat="49.29896" lon="0.21154">
        <ele>3.02</ele>
        <time>2021-01-30T15:37:33Z</time>
      </trkpt>
      <trkpt lat="49.2989" lon="0.21117">
        <ele>3.02</ele>
        <time>2021-01-30T15:37:55Z</time>
      </trkpt>
      <trkpt lat="49.29885" lon="0.21076">
        <ele>3.02</ele>
        <time>2021-01-30T15:38:15Z</time>
      </trkpt>
      <trkpt lat="49.29883" lon="0.21032">
        <ele>2.54</ele>
        <time>2021-01-30T15:38:38Z</time>
      </trkpt>
      <trkpt lat="49.29877" lon="0.20989">
        <ele>3.02</ele>
        <time>2021-01-30T15:39:00Z</time>
      </trkpt>
      <trkpt lat="49.29875" lon="0.20949">
        <ele>3.02</ele>
        <time>2021-01-30T15:39:24Z</time>
      </trkpt>
      <trkpt lat="49.2987" lon="0.20906">
        <ele>2.54</ele>
        <time>2021-01-30T15:39:45Z</time>
      </trkpt>
      <trkpt lat="49.29865" lon="0.20855">
        <ele>3.02</ele>
        <time>2021-01-30T15:40:10Z</time>
      </trkpt>
      <trkpt lat="49.29861" lon="0.2081">
        <ele>3.02</ele>
        <time>2021-01-30T15:40:34Z</time>
      </trkpt>
      <trkpt lat="49.29857" lon="0.20757">
        <ele>3.5</ele>
        <time>2021-01-30T15:41:02Z</time>
      </trkpt>
      <trkpt lat="49.2985" lon="0.20708">
        <ele>3.02</ele>
        <time>2021-01-30T15:41:26Z</time>
      </trkpt>
      <trkpt lat="49.29847" lon="0.20663">
        <ele>3.02</ele>
        <time>2021-01-30T15:41:50Z</time>
      </trkpt>
      <trkpt lat="49.29844" lon="0.20621">
        <ele>3.02</ele>
        <time>2021-01-30T15:42:14Z</time>
      </trkpt>
      <trkpt lat="49.29839" lon="0.20576">
        <ele>3.02</ele>
        <time>2021-01-30T15:42:38Z</time>
      </trkpt>
      <trkpt lat="49.29831" lon="0.20524">
        <ele>3.02</ele>
        <time>2021-01-30T15:43:04Z</time>
      </trkpt>
      <trkpt lat="49.29829" lon="0.20479">
        <ele>2.54</ele>
        <time>2021-01-30T15:43:27Z</time>
      </trkpt>
      <trkpt lat="49.29823" lon="0.20432">
        <ele>2.54</ele>
        <time>2021-01-30T15:43:52Z</time>
      </trkpt>
      <trkpt lat="49.29816" lon="0.20377">
        <ele>2.54</ele>
        <time>2021-01-30T15:44:19Z</time>
      </trkpt>
      <trkpt lat="49.29816" lon="0.20333">
        <ele>2.54</ele>
        <time>2021-01-30T15:44:43Z</time>
      </trkpt>
      <trkpt lat="49.29814" lon="0.20293">
        <ele>2.06</ele>
        <time>2021-01-30T15:45:05Z</time>
      </trkpt>
      <trkpt lat="49.29808" lon="0.20247">
        <ele>2.06</ele>
        <time>2021-01-30T15:45:30Z</time>
      </trkpt>
      <trkpt lat="49.29799" lon="0.20196">
        <ele>1.58</ele>
        <time>2021-01-30T15:45:57Z</time>
      </trkpt>
      <trkpt lat="49.29793" lon="0.20149">
        <ele>1.1</ele>
        <time>2021-01-30T15:46:23Z</time>
      </trkpt>
      <trkpt lat="49.29791" lon="0.20107">
        <ele>1.1</ele>
        <time>2021-01-30T15:46:47Z</time>
      </trkpt>
      <trkpt lat="49.29788" lon="0.20067">
        <ele>1.1</ele>
        <time>2021-01-30T15:47:08Z</time>
      </trkpt>
      <trkpt lat="49.29784" lon="0.20024">
        <ele>0.14</ele>
        <time>2021-01-30T15:47:31Z</time>
      </trkpt>
      <trkpt lat="49.29777" lon="0.19995">
        <ele>0.14</ele>
        <time>2021-01-30T15:47:50Z</time>
      </trkpt>
      <trkpt lat="49.29775" lon="0.19954">
        <ele>-1.3</ele>
        <time>2021-01-30T15:48:11Z</time>
      </trkpt>
      <trkpt lat="49.29775" lon="0.19953">
        <ele>-1.3</ele>
        <time>2021-01-30T15:48:12Z</time>
      </trkpt>
      <trkpt lat="49.29778" lon="0.19937">
        <ele>-1.79</ele>
        <time>2021-01-30T15:48:30Z</time>
      </trkpt>
      <trkpt lat="49.29775" lon="0.19899">
        <ele>-1.79</ele>
        <time>2021-01-30T15:48:54Z</time>
      </trkpt>
      <trkpt lat="49.29767" lon="0.19846">
        <ele>-2.27</ele>
        <time>2021-01-30T15:49:24Z</time>
      </trkpt>
      <trkpt lat="49.29765" lon="0.1981">
        <ele>-3.23</ele>
        <time>2021-01-30T15:49:47Z</time>
      </trkpt>
      <trkpt lat="49.29763" lon="0.19769">
        <ele>-3.71</ele>
        <time>2021-01-30T15:50:11Z</time>
      </trkpt>
      <trkpt lat="49.29757" lon="0.19731">
        <ele>-4.67</ele>
        <time>2021-01-30T15:50:32Z</time>
      </trkpt>
      <trkpt lat="49.2975" lon="0.1968">
        <ele>-5.15</ele>
        <time>2021-01-30T15:50:54Z</time>
      </trkpt>
      <trkpt lat="49.29747" lon="0.19624">
        <ele>-5.63</ele>
        <time>2021-01-30T15:51:22Z</time>
      </trkpt>
      <trkpt lat="49.29741" lon="0.19569">
        <ele>-6.11</ele>
        <time>2021-01-30T15:51:46Z</time>
      </trkpt>
      <trkpt lat="49.29736" lon="0.19531">
        <ele>-6.59</ele>
        <time>2021-01-30T15:52:11Z</time>
      </trkpt>
      <trkpt lat="49.2973" lon="0.19479">
        <ele>-7.07</ele>
        <time>2021-01-30T15:52:34Z</time>
      </trkpt>
      <trkpt lat="49.29723" lon="0.1944">
        <ele>-7.55</ele>
        <time>2021-01-30T15:53:00Z</time>
      </trkpt>
      <trkpt lat="49.29715" lon="0.19396">
        <ele>-7.55</ele>
        <time>2021-01-30T15:53:24Z</time>
      </trkpt>
      <trkpt lat="49.29715" lon="0.19374">
        <ele>-8.03</ele>
        <time>2021-01-30T15:53:44Z</time>
      </trkpt>
      <trkpt lat="49.29714" lon="0.19368">
        <ele>-8.51</ele>
        <time>2021-01-30T15:54:07Z</time>
      </trkpt>
      <trkpt lat="49.29712" lon="0.19369">
        <ele>-8.51</ele>
        <time>2021-01-30T15:54:28Z</time>
      </trkpt>
      <trkpt lat="49.29707" lon="0.19353">
        <ele>-8.51</ele>
        <time>2021-01-30T15:54:47Z</time>
      </trkpt>
      <trkpt lat="49.29702" lon="0.1933">
        <ele>-8.51</ele>
        <time>2021-01-30T15:55:09Z</time>
      </trkpt>
      <trkpt lat="49.29696" lon="0.19328">
        <ele>-8.51</ele>
        <time>2021-01-30T15:55:26Z</time>
      </trkpt>
      <trkpt lat="49.29684" lon="0.19296">
        <ele>-8.51</ele>
        <time>2021-01-30T15:55:31Z</time>
      </trkpt>
      <trkpt lat="49.29683" lon="0.19292">
        <ele>-4.67</ele>
        <time>2021-01-30T15:55:34Z</time>
      </trkpt>
      <trkpt lat="49.29683" lon="0.1929">
        <ele>-8.03</ele>
        <time>2021-01-30T15:55:35Z</time>
      </trkpt>
      <trkpt lat="49.2967" lon="0.19241">
        <ele>-8.51</ele>
        <time>2021-01-30T15:55:55Z</time>
      </trkpt>
      <trkpt lat="49.29661" lon="0.19207">
        <ele>-8.51</ele>
        <time>2021-01-30T15:56:16Z</time>
      </trkpt>
      <trkpt lat="49.29644" lon="0.19174">
        <ele>-8.51</ele>
        <time>2021-01-30T15:56:40Z</time>
      </trkpt>
      <trkpt lat="49.29623" lon="0.19128">
        <ele>-9</ele>
        <time>2021-01-30T15:57:07Z</time>
      </trkpt>
      <trkpt lat="49.29618" lon="0.19106">
        <ele>-9</ele>
        <time>2021-01-30T15:57:24Z</time>
      </trkpt>
      <trkpt lat="49.29608" lon="0.19092">
        <ele>-9</ele>
        <time>2021-01-30T15:57:50Z</time>
      </trkpt>
      <trkpt lat="49.29585" lon="0.19066">
        <ele>-9</ele>
        <time>2021-01-30T15:58:14Z</time>
      </trkpt>
      <trkpt lat="49.2957" lon="0.19043">
        <ele>-9.48</ele>
        <time>2021-01-30T15:58:34Z</time>
      </trkpt>
      <trkpt lat="49.29551" lon="0.19019">
        <ele>-9.96</ele>
        <time>2021-01-30T15:58:55Z</time>
      </trkpt>
      <trkpt lat="49.2954" lon="0.19005">
        <ele>-8.51</ele>
        <time>2021-01-30T15:59:11Z</time>
      </trkpt>
      <trkpt lat="49.29519" lon="0.18976">
        <ele>-9.48</ele>
        <time>2021-01-30T15:59:34Z</time>
      </trkpt>
      <trkpt lat="49.29507" lon="0.1896">
        <ele>-8.51</ele>
        <time>2021-01-30T15:59:51Z</time>
      </trkpt>
      <trkpt lat="49.29478" lon="0.18929">
        <ele>-9</ele>
        <time>2021-01-30T16:00:19Z</time>
      </trkpt>
      <trkpt lat="49.2945" lon="0.18903">
        <ele>-9.48</ele>
        <time>2021-01-30T16:00:47Z</time>
      </trkpt>
      <trkpt lat="49.29424" lon="0.18882">
        <ele>-9</ele>
        <time>2021-01-30T16:01:11Z</time>
      </trkpt>
      <trkpt lat="49.29421" lon="0.18887">
        <ele>-9</ele>
        <time>2021-01-30T16:01:33Z</time>
      </trkpt>
      <trkpt lat="49.29421" lon="0.18886">
        <ele>-9</ele>
        <time>2021-01-30T16:01:56Z</time>
      </trkpt>
      <trkpt lat="49.29422" lon="0.18886">
        <ele>-8.51</ele>
        <time>2021-01-30T16:02:26Z</time>
      </trkpt>
      <trkpt lat="49.29423" lon="0.18883">
        <ele>-8.03</ele>
        <time>2021-01-30T16:02:59Z</time>
      </trkpt>
      <trkpt lat="49.29424" lon="0.18883">
        <ele>-7.07</ele>
        <time>2021-01-30T16:03:23Z</time>
      </trkpt>
      <trkpt lat="49.29424" lon="0.18884">
        <ele>-6.59</ele>
        <time>2021-01-30T16:03:57Z</time>
      </trkpt>
      <trkpt lat="49.29424" lon="0.18891">
        <ele>-6.11</ele>
        <time>2021-01-30T16:04:24Z</time>
      </trkpt>
      <trkpt lat="49.29429" lon="0.1889">
        <ele>-5.63</ele>
        <time>2021-01-30T16:04:57Z</time>
      </trkpt>
      <trkpt lat="49.2942" lon="0.18894">
        <ele>-5.15</ele>
        <time>2021-01-30T16:05:36Z</time>
      </trkpt>
      <trkpt lat="49.29423" lon="0.18888">
        <ele>-6.11</ele>
        <time>2021-01-30T16:05:51Z</time>
      </trkpt>
      <trkpt lat="49.29416" lon="0.18895">
        <ele>-7.07</ele>
        <time>2021-01-30T16:06:07Z</time>
      </trkpt>
      <trkpt lat="49.29411" lon="0.18896">
        <ele>-8.03</ele>
        <time>2021-01-30T16:06:23Z</time>
      </trkpt>
      <trkpt lat="49.29393" lon="0.18901">
        <ele>-8.03</ele>
        <time>2021-01-30T16:06:40Z</time>
      </trkpt>
      <trkpt lat="49.29376" lon="0.18919">
        <ele>-7.55</ele>
        <time>2021-01-30T16:06:58Z</time>
      </trkpt>
      <trkpt lat="49.29362" lon="0.18917">
        <ele>-8.03</ele>
        <time>2021-01-30T16:07:07Z</time>
      </trkpt>
      <trkpt lat="49.29343" lon="0.18926">
        <ele>-8.51</ele>
        <time>2021-01-30T16:07:23Z</time>
      </trkpt>
      <trkpt lat="49.29324" lon="0.18938">
        <ele>-8.51</ele>
        <time>2021-01-30T16:07:40Z</time>
      </trkpt>
      <trkpt lat="49.29297" lon="0.18938">
        <ele>-9</ele>
        <time>2021-01-30T16:07:58Z</time>
      </trkpt>
      <trkpt lat="49.29279" lon="0.18954">
        <ele>-9.96</ele>
        <time>2021-01-30T16:08:18Z</time>
      </trkpt>
      <trkpt lat="49.29256" lon="0.18955">
        <ele>-10.44</ele>
        <time>2021-01-30T16:08:34Z</time>
      </trkpt>
      <trkpt lat="49.29241" lon="0.18958">
        <ele>-11.4</ele>
        <time>2021-01-30T16:08:58Z</time>
      </trkpt>
      <trkpt lat="49.2922" lon="0.18955">
        <ele>-11.88</ele>
        <time>2021-01-30T16:09:21Z</time>
      </trkpt>
      <trkpt lat="49.29203" lon="0.18967">
        <ele>-12.36</ele>
        <time>2021-01-30T16:09:37Z</time>
      </trkpt>
      <trkpt lat="49.29183" lon="0.18984">
        <ele>-13.32</ele>
        <time>2021-01-30T16:09:55Z</time>
      </trkpt>
      <trkpt lat="49.29159" lon="0.18981">
        <ele>-14.28</ele>
        <time>2021-01-30T16:10:11Z</time>
      </trkpt>
      <trkpt lat="49.29143" lon="0.18978">
        <ele>-14.28</ele>
        <time>2021-01-30T16:10:27Z</time>
      </trkpt>
      <trkpt lat="49.29122" lon="0.18994">
        <ele>-14.28</ele>
        <time>2021-01-30T16:10:49Z</time>
      </trkpt>
      <trkpt lat="49.29102" lon="0.19019">
        <ele>-14.28</ele>
        <time>2021-01-30T16:11:08Z</time>
      </trkpt>
      <trkpt lat="49.29092" lon="0.19024">
        <ele>-14.28</ele>
        <time>2021-01-30T16:11:21Z</time>
      </trkpt>
      <trkpt lat="49.29073" lon="0.18994">
        <ele>-15.24</ele>
        <time>2021-01-30T16:11:44Z</time>
      </trkpt>
      <trkpt lat="49.29055" lon="0.18965">
        <ele>-15.24</ele>
        <time>2021-01-30T16:12:05Z</time>
      </trkpt>
      <trkpt lat="49.29037" lon="0.18937">
        <ele>-15.24</ele>
        <time>2021-01-30T16:12:27Z</time>
      </trkpt>
      <trkpt lat="49.29014" lon="0.18906">
        <ele>-14.76</ele>
        <time>2021-01-30T16:12:53Z</time>
      </trkpt>
      <trkpt lat="49.28992" lon="0.18873">
        <ele>-14.76</ele>
        <time>2021-01-30T16:13:15Z</time>
      </trkpt>
      <trkpt lat="49.28983" lon="0.18848">
        <ele>-14.76</ele>
        <time>2021-01-30T16:13:35Z</time>
      </trkpt>
      <trkpt lat="49.2896" lon="0.18814">
        <ele>-14.28</ele>
        <time>2021-01-30T16:13:57Z</time>
      </trkpt>
      <trkpt lat="49.28941" lon="0.18793">
        <ele>-13.8</ele>
        <time>2021-01-30T16:14:17Z</time>
      </trkpt>
      <trkpt lat="49.28913" lon="0.18768">
        <ele>-13.8</ele>
        <time>2021-01-30T16:14:42Z</time>
      </trkpt>
      <trkpt lat="49.28892" lon="0.18738">
        <ele>-13.32</ele>
        <time>2021-01-30T16:15:05Z</time>
      </trkpt>
      <trkpt lat="49.28866" lon="0.18719">
        <ele>-13.32</ele>
        <time>2021-01-30T16:15:29Z</time>
      </trkpt>
      <trkpt lat="49.28852" lon="0.18707">
        <ele>-13.32</ele>
        <time>2021-01-30T16:15:46Z</time>
      </trkpt>
      <trkpt lat="49.28826" lon="0.18691">
        <ele>-12.84</ele>
        <time>2021-01-30T16:16:06Z</time>
      </trkpt>
      <trkpt lat="49.28812" lon="0.18687">
        <ele>-12.84</ele>
        <time>2021-01-30T16:16:14Z</time>
      </trkpt>
      <trkpt lat="49.28795" lon="0.18687">
        <ele>-12.84</ele>
        <time>2021-01-30T16:16:32Z</time>
      </trkpt>
      <trkpt lat="49.28775" lon="0.18686">
        <ele>-12.84</ele>
        <time>2021-01-30T16:16:50Z</time>
      </trkpt>
      <trkpt lat="49.28762" lon="0.18671">
        <ele>-12.84</ele>
        <time>2021-01-30T16:17:06Z</time>
      </trkpt>
      <trkpt lat="49.28741" lon="0.18638">
        <ele>-13.32</ele>
        <time>2021-01-30T16:17:28Z</time>
      </trkpt>
      <trkpt lat="49.28722" lon="0.18621">
        <ele>-12.84</ele>
        <time>2021-01-30T16:17:43Z</time>
      </trkpt>
      <trkpt lat="49.28705" lon="0.18593">
        <ele>-13.32</ele>
        <time>2021-01-30T16:18:04Z</time>
      </trkpt>
      <trkpt lat="49.28686" lon="0.18572">
        <ele>-12.36</ele>
        <time>2021-01-30T16:18:23Z</time>
      </trkpt>
      <trkpt lat="49.28681" lon="0.18555">
        <ele>-12.36</ele>
        <time>2021-01-30T16:18:41Z</time>
      </trkpt>
      <trkpt lat="49.28684" lon="0.18553">
        <ele>-12.36</ele>
        <time>2021-01-30T16:19:05Z</time>
      </trkpt>
      <trkpt lat="49.28672" lon="0.18529">
        <ele>-13.8</ele>
        <time>2021-01-30T16:19:24Z</time>
      </trkpt>
      <trkpt lat="49.28666" lon="0.18501">
        <ele>-14.28</ele>
        <time>2021-01-30T16:19:41Z</time>
      </trkpt>
      <trkpt lat="49.28654" lon="0.18462">
        <ele>-14.28</ele>
        <time>2021-01-30T16:20:04Z</time>
      </trkpt>
      <trkpt lat="49.28647" lon="0.18437">
        <ele>-14.28</ele>
        <time>2021-01-30T16:20:23Z</time>
      </trkpt>
      <trkpt lat="49.28634" lon="0.18401">
        <ele>-13.32</ele>
        <time>2021-01-30T16:20:46Z</time>
      </trkpt>
      <trkpt lat="49.28625" lon="0.1837">
        <ele>-12.84</ele>
        <time>2021-01-30T16:21:07Z</time>
      </trkpt>
      <trkpt lat="49.28618" lon="0.18331">
        <ele>-12.36</ele>
        <time>2021-01-30T16:21:28Z</time>
      </trkpt>
      <trkpt lat="49.28609" lon="0.18286">
        <ele>-13.8</ele>
        <time>2021-01-30T16:21:50Z</time>
      </trkpt>
      <trkpt lat="49.28599" lon="0.18246">
        <ele>-14.28</ele>
        <time>2021-01-30T16:22:12Z</time>
      </trkpt>
      <trkpt lat="49.2859" lon="0.18216">
        <ele>-14.28</ele>
        <time>2021-01-30T16:22:30Z</time>
      </trkpt>
      <trkpt lat="49.28581" lon="0.18201">
        <ele>-14.76</ele>
        <time>2021-01-30T16:22:44Z</time>
      </trkpt>
      <trkpt lat="49.28567" lon="0.18163">
        <ele>-15.72</ele>
        <time>2021-01-30T16:23:06Z</time>
      </trkpt>
      <trkpt lat="49.28553" lon="0.18129">
        <ele>-15.72</ele>
        <time>2021-01-30T16:23:28Z</time>
      </trkpt>
      <trkpt lat="49.2855" lon="0.18118">
        <ele>-15.72</ele>
        <time>2021-01-30T16:23:43Z</time>
      </trkpt>
      <trkpt lat="49.28537" lon="0.18092">
        <ele>-15.72</ele>
        <time>2021-01-30T16:24:03Z</time>
      </trkpt>
      <trkpt lat="49.28521" lon="0.18071">
        <ele>-15.72</ele>
        <time>2021-01-30T16:24:20Z</time>
      </trkpt>
      <trkpt lat="49.28495" lon="0.18047">
        <ele>-15.72</ele>
        <time>2021-01-30T16:24:45Z</time>
      </trkpt>
      <trkpt lat="49.28469" lon="0.18023">
        <ele>-15.72</ele>
        <time>2021-01-30T16:25:07Z</time>
      </trkpt>
      <trkpt lat="49.28465" lon="0.18015">
        <ele>-15.72</ele>
        <time>2021-01-30T16:25:13Z</time>
      </trkpt>
      <trkpt lat="49.28461" lon="0.18009">
        <ele>-15.72</ele>
        <time>2021-01-30T16:25:17Z</time>
      </trkpt>
      <trkpt lat="49.28446" lon="0.17977">
        <ele>-15.72</ele>
        <time>2021-01-30T16:25:42Z</time>
      </trkpt>
      <trkpt lat="49.28462" lon="0.17934">
        <ele>-15.72</ele>
        <time>2021-01-30T16:26:02Z</time>
      </trkpt>
      <trkpt lat="49.28481" lon="0.17889">
        <ele>-15.24</ele>
        <time>2021-01-30T16:26:27Z</time>
      </trkpt>
      <trkpt lat="49.28494" lon="0.17856">
        <ele>-15.24</ele>
        <time>2021-01-30T16:26:50Z</time>
      </trkpt>
      <trkpt lat="49.28486" lon="0.1784">
        <ele>-15.24</ele>
        <time>2021-01-30T16:27:10Z</time>
      </trkpt>
      <trkpt lat="49.2845" lon="0.17828">
        <ele>-16.21</ele>
        <time>2021-01-30T16:27:31Z</time>
      </trkpt>
      <trkpt lat="49.28428" lon="0.17807">
        <ele>-15.72</ele>
        <time>2021-01-30T16:27:51Z</time>
      </trkpt>
      <trkpt lat="49.28435" lon="0.17778">
        <ele>-15.72</ele>
        <time>2021-01-30T16:28:09Z</time>
      </trkpt>
      <trkpt lat="49.28445" lon="0.17723">
        <ele>-15.72</ele>
        <time>2021-01-30T16:28:33Z</time>
      </trkpt>
      <trkpt lat="49.28454" lon="0.17672">
        <ele>-15.72</ele>
        <time>2021-01-30T16:29:01Z</time>
      </trkpt>
      <trkpt lat="49.28467" lon="0.17624">
        <ele>-15.72</ele>
        <time>2021-01-30T16:29:28Z</time>
      </trkpt>
      <trkpt lat="49.28475" lon="0.17582">
        <ele>-15.72</ele>
        <time>2021-01-30T16:29:52Z</time>
      </trkpt>
      <trkpt lat="49.28473" lon="0.17538">
        <ele>-15.72</ele>
        <time>2021-01-30T16:30:15Z</time>
      </trkpt>
      <trkpt lat="49.28474" lon="0.17508">
        <ele>-15.72</ele>
        <time>2021-01-30T16:30:34Z</time>
      </trkpt>
      <trkpt lat="49.2847" lon="0.17476">
        <ele>-15.72</ele>
        <time>2021-01-30T16:30:53Z</time>
      </trkpt>
      <trkpt lat="49.28469" lon="0.17434">
        <ele>-16.21</ele>
        <time>2021-01-30T16:31:13Z</time>
      </trkpt>
      <trkpt lat="49.28465" lon="0.17384">
        <ele>-15.72</ele>
        <time>2021-01-30T16:31:37Z</time>
      </trkpt>
      <trkpt lat="49.28464" lon="0.17367">
        <ele>-15.72</ele>
        <time>2021-01-30T16:31:44Z</time>
      </trkpt>
      <trkpt lat="49.28462" lon="0.17346">
        <ele>-15.72</ele>
        <time>2021-01-30T16:32:01Z</time>
      </trkpt>
      <trkpt lat="49.28455" lon="0.17311">
        <ele>-15.72</ele>
        <time>2021-01-30T16:32:22Z</time>
      </trkpt>
      <trkpt lat="49.28456" lon="0.17261">
        <ele>-15.24</ele>
        <time>2021-01-30T16:32:49Z</time>
      </trkpt>
      <trkpt lat="49.2844" lon="0.17244">
        <ele>-15.24</ele>
        <time>2021-01-30T16:33:05Z</time>
      </trkpt>
      <trkpt lat="49.28408" lon="0.1724">
        <ele>-14.76</ele>
        <time>2021-01-30T16:33:29Z</time>
      </trkpt>
      <trkpt lat="49.28391" lon="0.17248">
        <ele>-13.8</ele>
        <time>2021-01-30T16:33:42Z</time>
      </trkpt>
      <trkpt lat="49.28382" lon="0.17253">
        <ele>-12.84</ele>
        <time>2021-01-30T16:33:49Z</time>
      </trkpt>
      <trkpt lat="49.2836" lon="0.17278">
        <ele>-9.96</ele>
        <time>2021-01-30T16:34:12Z</time>
      </trkpt>
      <trkpt lat="49.28346" lon="0.17313">
        <ele>-7.07</ele>
        <time>2021-01-30T16:34:38Z</time>
      </trkpt>
      <trkpt lat="49.28338" lon="0.17358">
        <ele>-6.11</ele>
        <time>2021-01-30T16:35:02Z</time>
      </trkpt>
      <trkpt lat="49.28335" lon="0.17396">
        <ele>-5.63</ele>
        <time>2021-01-30T16:35:23Z</time>
      </trkpt>
      <trkpt lat="49.28333" lon="0.1742">
        <ele>-4.19</ele>
        <time>2021-01-30T16:35:37Z</time>
      </trkpt>
      <trkpt lat="49.28332" lon="0.17447">
        <ele>-2.27</ele>
        <time>2021-01-30T16:35:57Z</time>
      </trkpt>
      <trkpt lat="49.28317" lon="0.17443">
        <ele>0.14</ele>
        <time>2021-01-30T16:36:14Z</time>
      </trkpt>
      <trkpt lat="49.28299" lon="0.17425">
        <ele>3.5</ele>
        <time>2021-01-30T16:36:35Z</time>
      </trkpt>
      <trkpt lat="49.2829" lon="0.17377">
        <ele>4.94</ele>
        <time>2021-01-30T16:37:00Z</time>
      </trkpt>
      <trkpt lat="49.28282" lon="0.17337">
        <ele>6.87</ele>
        <time>2021-01-30T16:37:23Z</time>
      </trkpt>
      <trkpt lat="49.28274" lon="0.17303">
        <ele>8.31</ele>
        <time>2021-01-30T16:37:43Z</time>
      </trkpt>
      <trkpt lat="49.28258" lon="0.17295">
        <ele>11.19</ele>
        <time>2021-01-30T16:38:00Z</time>
      </trkpt>
      <trkpt lat="49.28243" lon="0.17328">
        <ele>13.12</ele>
        <time>2021-01-30T16:38:23Z</time>
      </trkpt>
      <trkpt lat="49.28233" lon="0.1736">
        <ele>13.6</ele>
        <time>2021-01-30T16:38:42Z</time>
      </trkpt>
      <trkpt lat="49.28216" lon="0.17398">
        <ele>13.6</ele>
        <time>2021-01-30T16:39:04Z</time>
      </trkpt>
      <trkpt lat="49.28212" lon="0.17413">
        <ele>14.08</ele>
        <time>2021-01-30T16:39:12Z</time>
      </trkpt>
      <trkpt lat="49.28194" lon="0.17433">
        <ele>16.48</ele>
        <time>2021-01-30T16:39:31Z</time>
      </trkpt>
      <trkpt lat="49.28167" lon="0.17443">
        <ele>18.88</ele>
        <time>2021-01-30T16:39:54Z</time>
      </trkpt>
      <trkpt lat="49.28147" lon="0.17449">
        <ele>20.32</ele>
        <time>2021-01-30T16:40:14Z</time>
      </trkpt>
      <trkpt lat="49.28112" lon="0.17454">
        <ele>22.73</ele>
        <time>2021-01-30T16:40:42Z</time>
      </trkpt>
      <trkpt lat="49.28079" lon="0.17458">
        <ele>25.13</ele>
        <time>2021-01-30T16:41:09Z</time>
      </trkpt>
      <trkpt lat="49.28048" lon="0.17464">
        <ele>26.57</ele>
        <time>2021-01-30T16:41:36Z</time>
      </trkpt>
      <trkpt lat="49.28009" lon="0.17476">
        <ele>27.05</ele>
        <time>2021-01-30T16:42:03Z</time>
      </trkpt>
      <trkpt lat="49.27981" lon="0.17477">
        <ele>27.53</ele>
        <time>2021-01-30T16:42:30Z</time>
      </trkpt>
      <trkpt lat="49.2797" lon="0.17472">
        <ele>28.5</ele>
        <time>2021-01-30T16:42:45Z</time>
      </trkpt>
      <trkpt lat="49.27956" lon="0.17468">
        <ele>28.5</ele>
        <time>2021-01-30T16:42:55Z</time>
      </trkpt>
      <trkpt lat="49.27924" lon="0.17443">
        <ele>28.5</ele>
        <time>2021-01-30T16:43:24Z</time>
      </trkpt>
      <trkpt lat="49.27901" lon="0.17441">
        <ele>28.98</ele>
        <time>2021-01-30T16:43:47Z</time>
      </trkpt>
      <trkpt lat="49.27868" lon="0.17466">
        <ele>29.46</ele>
        <time>2021-01-30T16:44:12Z</time>
      </trkpt>
      <trkpt lat="49.27849" lon="0.17477">
        <ele>29.46</ele>
        <time>2021-01-30T16:44:32Z</time>
      </trkpt>
      <trkpt lat="49.27831" lon="0.17494">
        <ele>29.94</ele>
        <time>2021-01-30T16:44:49Z</time>
      </trkpt>
      <trkpt lat="49.27824" lon="0.17523">
        <ele>29.94</ele>
        <time>2021-01-30T16:45:08Z</time>
      </trkpt>
      <trkpt lat="49.2781" lon="0.17556">
        <ele>28.5</ele>
        <time>2021-01-30T16:45:28Z</time>
      </trkpt>
      <trkpt lat="49.278" lon="0.17583">
        <ele>27.05</ele>
        <time>2021-01-30T16:45:44Z</time>
      </trkpt>
      <trkpt lat="49.2779" lon="0.17632">
        <ele>25.13</ele>
        <time>2021-01-30T16:46:10Z</time>
      </trkpt>
      <trkpt lat="49.27794" lon="0.17692">
        <ele>24.17</ele>
        <time>2021-01-30T16:46:40Z</time>
      </trkpt>
      <trkpt lat="49.27799" lon="0.17747">
        <ele>21.77</ele>
        <time>2021-01-30T16:47:07Z</time>
      </trkpt>
      <trkpt lat="49.27814" lon="0.1778">
        <ele>20.32</ele>
        <time>2021-01-30T16:47:31Z</time>
      </trkpt>
      <trkpt lat="49.27815" lon="0.17809">
        <ele>19.36</ele>
        <time>2021-01-30T16:47:51Z</time>
      </trkpt>
      <trkpt lat="49.27817" lon="0.1786">
        <ele>17.92</ele>
        <time>2021-01-30T16:48:14Z</time>
      </trkpt>
      <trkpt lat="49.27818" lon="0.17902">
        <ele>16</ele>
        <time>2021-01-30T16:48:37Z</time>
      </trkpt>
      <trkpt lat="49.27826" lon="0.17922">
        <ele>16</ele>
        <time>2021-01-30T16:48:55Z</time>
      </trkpt>
      <trkpt lat="49.2785" lon="0.17927">
        <ele>16</ele>
        <time>2021-01-30T16:49:13Z</time>
      </trkpt>
      <trkpt lat="49.27877" lon="0.17931">
        <ele>16</ele>
        <time>2021-01-30T16:49:33Z</time>
      </trkpt>
      <trkpt lat="49.27907" lon="0.17936">
        <ele>15.52</ele>
        <time>2021-01-30T16:49:54Z</time>
      </trkpt>
      <trkpt lat="49.27944" lon="0.17941">
        <ele>15.52</ele>
        <time>2021-01-30T16:50:18Z</time>
      </trkpt>
      <trkpt lat="49.27973" lon="0.17948">
        <ele>16</ele>
        <time>2021-01-30T16:50:43Z</time>
      </trkpt>
      <trkpt lat="49.27989" lon="0.17951">
        <ele>16.96</ele>
        <time>2021-01-30T16:50:53Z</time>
      </trkpt>
      <trkpt lat="49.28008" lon="0.17944">
        <ele>17.92</ele>
        <time>2021-01-30T16:51:15Z</time>
      </trkpt>
      <trkpt lat="49.2802" lon="0.17898">
        <ele>18.88</ele>
        <time>2021-01-30T16:51:38Z</time>
      </trkpt>
      <trkpt lat="49.28028" lon="0.17852">
        <ele>20.32</ele>
        <time>2021-01-30T16:52:02Z</time>
      </trkpt>
      <trkpt lat="49.28036" lon="0.17844">
        <ele>20.32</ele>
        <time>2021-01-30T16:52:21Z</time>
      </trkpt>
      <trkpt lat="49.2804" lon="0.17837">
        <ele>18.88</ele>
        <time>2021-01-30T16:52:44Z</time>
      </trkpt>
      <trkpt lat="49.28058" lon="0.17834">
        <ele>18.88</ele>
        <time>2021-01-30T16:53:08Z</time>
      </trkpt>
      <trkpt lat="49.28069" lon="0.17841">
        <ele>19.84</ele>
        <time>2021-01-30T16:53:22Z</time>
      </trkpt>
      <trkpt lat="49.28079" lon="0.17847">
        <ele>19.84</ele>
        <time>2021-01-30T16:53:34Z</time>
      </trkpt>
    </trkseg>
  </trk>
</gpx>